<?xml version="1.0" encoding="UTF-8" standalone="no" ?>
<gpx xmlns="http://www.topografix.com/GPX/1/1" xmlns:xsi="http://www.w3.org/2001/XMLSchema-instance" xsi:schemaLocation="http://www.topografix.com/GPX/1/1 http://www.topografix.com/GPX/1/1/gpx.xsd" version="1.1" creator="VisuGPX - https://www.visugpx.com">
  <metadata>
    <name>Grand Roc (Bauges)</name>
    <desc><![CDATA[D  1300m
Beaux points du vue !!!]]></desc>
  </metadata>
  <trk>
    <name><![CDATA[grand roc (bauges)]]></name>
    <desc><![CDATA[<h1>OruxMaps</h1><br /><hr align="center" width="480" style="height: 2px; width: 517px"/><h2>Nom: grand roc (bauges)</h2><br /><p>Temps de départ: 04/26/2014 09:55</p><p>Temps d'arrivée: 04/26/2014 16:59</p><p>Distance: 14,5 km (07:03)</p><p>Temps déplacement: 04:28</p><p>Vitesse moyenne: 2,1 km/h</p><p>Vitesse moyenne: 3,2 km/h</p><p>Vitess Max.: 8 km/h</p><p>Altitude minimale: 710 m</p><p>Altitude maximale: 1817 m</p><p>Vitesse d'élévation: 417,3 m/h</p><p>Vitesse de descente: -390,9 m/h</p><p>Gain Altitude: 1355 m</p><p>Perte Altitude: -1366 m</p><p>Temps d'élévation: 03:14</p><p>Temps de descente: 03:29</p><hr align="center" width="480" style="height: 2px; width: 517px"/>]]></desc>
    <trkseg>
      <trkpt lat="45.64173" lon="6.28262">
        <ele>718.81</ele>
        <time>2014-04-26T07:55:51Z</time>
      </trkpt>
      <trkpt lat="45.6419" lon="6.28273">
        <ele>715.12</ele>
        <time>2014-04-26T07:56:56Z</time>
      </trkpt>
      <trkpt lat="45.64207" lon="6.28282">
        <ele>715.83</ele>
        <time>2014-04-26T07:57:14Z</time>
      </trkpt>
      <trkpt lat="45.64225" lon="6.2829">
        <ele>720.47</ele>
        <time>2014-04-26T07:57:34Z</time>
      </trkpt>
      <trkpt lat="45.64242" lon="6.28301">
        <ele>720.5</ele>
        <time>2014-04-26T07:57:53Z</time>
      </trkpt>
      <trkpt lat="45.6426" lon="6.28304">
        <ele>724.38</ele>
        <time>2014-04-26T07:58:15Z</time>
      </trkpt>
      <trkpt lat="45.64278" lon="6.28308">
        <ele>728.15</ele>
        <time>2014-04-26T07:58:36Z</time>
      </trkpt>
      <trkpt lat="45.64297" lon="6.2831">
        <ele>737.37</ele>
        <time>2014-04-26T07:58:59Z</time>
      </trkpt>
      <trkpt lat="45.64315" lon="6.28318">
        <ele>746.19</ele>
        <time>2014-04-26T07:59:24Z</time>
      </trkpt>
      <trkpt lat="45.64327" lon="6.28338">
        <ele>752.94</ele>
        <time>2014-04-26T07:59:48Z</time>
      </trkpt>
      <trkpt lat="45.64341" lon="6.28353">
        <ele>764.21</ele>
        <time>2014-04-26T08:00:09Z</time>
      </trkpt>
      <trkpt lat="45.6436" lon="6.28358">
        <ele>763.07</ele>
        <time>2014-04-26T08:00:28Z</time>
      </trkpt>
      <trkpt lat="45.64377" lon="6.28368">
        <ele>764.96</ele>
        <time>2014-04-26T08:00:43Z</time>
      </trkpt>
      <trkpt lat="45.64363" lon="6.28349">
        <ele>753.71</ele>
        <time>2014-04-26T08:01:38Z</time>
      </trkpt>
      <trkpt lat="45.64356" lon="6.28326">
        <ele>759.24</ele>
        <time>2014-04-26T08:02:00Z</time>
      </trkpt>
      <trkpt lat="45.64353" lon="6.28299">
        <ele>763.47</ele>
        <time>2014-04-26T08:02:22Z</time>
      </trkpt>
      <trkpt lat="45.64357" lon="6.28273">
        <ele>764.89</ele>
        <time>2014-04-26T08:02:40Z</time>
      </trkpt>
      <trkpt lat="45.64371" lon="6.28256">
        <ele>770.96</ele>
        <time>2014-04-26T08:03:10Z</time>
      </trkpt>
      <trkpt lat="45.64385" lon="6.28239">
        <ele>772.66</ele>
        <time>2014-04-26T08:03:24Z</time>
      </trkpt>
      <trkpt lat="45.644" lon="6.28254">
        <ele>769.21</ele>
        <time>2014-04-26T08:03:52Z</time>
      </trkpt>
      <trkpt lat="45.6439" lon="6.28276">
        <ele>780.13</ele>
        <time>2014-04-26T08:04:18Z</time>
      </trkpt>
      <trkpt lat="45.64404" lon="6.28293">
        <ele>792.04</ele>
        <time>2014-04-26T08:04:54Z</time>
      </trkpt>
      <trkpt lat="45.64422" lon="6.28293">
        <ele>796.34</ele>
        <time>2014-04-26T08:05:20Z</time>
      </trkpt>
      <trkpt lat="45.64441" lon="6.28292">
        <ele>807.23</ele>
        <time>2014-04-26T08:05:39Z</time>
      </trkpt>
      <trkpt lat="45.64458" lon="6.28302">
        <ele>799.04</ele>
        <time>2014-04-26T08:06:02Z</time>
      </trkpt>
      <trkpt lat="45.64476" lon="6.28309">
        <ele>790.55</ele>
        <time>2014-04-26T08:06:22Z</time>
      </trkpt>
      <trkpt lat="45.64494" lon="6.28309">
        <ele>796.15</ele>
        <time>2014-04-26T08:06:35Z</time>
      </trkpt>
      <trkpt lat="45.64512" lon="6.28301">
        <ele>794.74</ele>
        <time>2014-04-26T08:06:51Z</time>
      </trkpt>
      <trkpt lat="45.6453" lon="6.28289">
        <ele>793.88</ele>
        <time>2014-04-26T08:07:14Z</time>
      </trkpt>
      <trkpt lat="45.64547" lon="6.28281">
        <ele>799.91</ele>
        <time>2014-04-26T08:07:31Z</time>
      </trkpt>
      <trkpt lat="45.64563" lon="6.28267">
        <ele>793.29</ele>
        <time>2014-04-26T08:07:47Z</time>
      </trkpt>
      <trkpt lat="45.64581" lon="6.28262">
        <ele>802.68</ele>
        <time>2014-04-26T08:08:08Z</time>
      </trkpt>
      <trkpt lat="45.64598" lon="6.28254">
        <ele>818.03</ele>
        <time>2014-04-26T08:08:38Z</time>
      </trkpt>
      <trkpt lat="45.64615" lon="6.28245">
        <ele>818.93</ele>
        <time>2014-04-26T08:08:53Z</time>
      </trkpt>
      <trkpt lat="45.64632" lon="6.28238">
        <ele>814.29</ele>
        <time>2014-04-26T08:09:09Z</time>
      </trkpt>
      <trkpt lat="45.6465" lon="6.28233">
        <ele>819.09</ele>
        <time>2014-04-26T08:09:25Z</time>
      </trkpt>
      <trkpt lat="45.64669" lon="6.28229">
        <ele>828.17</ele>
        <time>2014-04-26T08:09:48Z</time>
      </trkpt>
      <trkpt lat="45.64686" lon="6.28234">
        <ele>835.73</ele>
        <time>2014-04-26T08:12:56Z</time>
      </trkpt>
      <trkpt lat="45.64701" lon="6.28217">
        <ele>835.91</ele>
        <time>2014-04-26T08:15:17Z</time>
      </trkpt>
      <trkpt lat="45.64714" lon="6.28199">
        <ele>842.98</ele>
        <time>2014-04-26T08:15:52Z</time>
      </trkpt>
      <trkpt lat="45.64728" lon="6.28182">
        <ele>847.63</ele>
        <time>2014-04-26T08:16:22Z</time>
      </trkpt>
      <trkpt lat="45.64744" lon="6.28168">
        <ele>854.26</ele>
        <time>2014-04-26T08:16:57Z</time>
      </trkpt>
      <trkpt lat="45.64758" lon="6.28152">
        <ele>852.2</ele>
        <time>2014-04-26T08:17:17Z</time>
      </trkpt>
      <trkpt lat="45.64772" lon="6.28135">
        <ele>859.35</ele>
        <time>2014-04-26T08:17:46Z</time>
      </trkpt>
      <trkpt lat="45.6479" lon="6.28127">
        <ele>861.98</ele>
        <time>2014-04-26T08:18:28Z</time>
      </trkpt>
      <trkpt lat="45.64806" lon="6.28115">
        <ele>868.32</ele>
        <time>2014-04-26T08:18:54Z</time>
      </trkpt>
      <trkpt lat="45.64821" lon="6.28098">
        <ele>872.58</ele>
        <time>2014-04-26T08:19:08Z</time>
      </trkpt>
      <trkpt lat="45.64836" lon="6.28084">
        <ele>889.19</ele>
        <time>2014-04-26T08:20:01Z</time>
      </trkpt>
      <trkpt lat="45.64851" lon="6.28069">
        <ele>891.3</ele>
        <time>2014-04-26T08:20:20Z</time>
      </trkpt>
      <trkpt lat="45.64868" lon="6.28061">
        <ele>899.31</ele>
        <time>2014-04-26T08:20:55Z</time>
      </trkpt>
      <trkpt lat="45.64887" lon="6.28057">
        <ele>904.65</ele>
        <time>2014-04-26T08:21:25Z</time>
      </trkpt>
      <trkpt lat="45.64904" lon="6.28048">
        <ele>909.64</ele>
        <time>2014-04-26T08:21:56Z</time>
      </trkpt>
      <trkpt lat="45.64918" lon="6.28032">
        <ele>916.14</ele>
        <time>2014-04-26T08:22:32Z</time>
      </trkpt>
      <trkpt lat="45.64934" lon="6.28018">
        <ele>922.6</ele>
        <time>2014-04-26T08:23:20Z</time>
      </trkpt>
      <trkpt lat="45.64949" lon="6.28004">
        <ele>926.45</ele>
        <time>2014-04-26T08:24:06Z</time>
      </trkpt>
      <trkpt lat="45.64962" lon="6.27986">
        <ele>931.23</ele>
        <time>2014-04-26T08:24:53Z</time>
      </trkpt>
      <trkpt lat="45.64976" lon="6.27966">
        <ele>931.75</ele>
        <time>2014-04-26T08:25:13Z</time>
      </trkpt>
      <trkpt lat="45.64989" lon="6.27949">
        <ele>930.08</ele>
        <time>2014-04-26T08:25:33Z</time>
      </trkpt>
      <trkpt lat="45.65004" lon="6.27934">
        <ele>932.77</ele>
        <time>2014-04-26T08:26:19Z</time>
      </trkpt>
      <trkpt lat="45.65014" lon="6.27912">
        <ele>931.79</ele>
        <time>2014-04-26T08:26:54Z</time>
      </trkpt>
      <trkpt lat="45.65023" lon="6.27889">
        <ele>932.58</ele>
        <time>2014-04-26T08:27:29Z</time>
      </trkpt>
      <trkpt lat="45.65034" lon="6.27869">
        <ele>941.18</ele>
        <time>2014-04-26T08:27:57Z</time>
      </trkpt>
      <trkpt lat="45.65042" lon="6.27846">
        <ele>945.84</ele>
        <time>2014-04-26T08:28:47Z</time>
      </trkpt>
      <trkpt lat="45.65043" lon="6.2782">
        <ele>953.16</ele>
        <time>2014-04-26T08:29:31Z</time>
      </trkpt>
      <trkpt lat="45.65039" lon="6.27794">
        <ele>966.31</ele>
        <time>2014-04-26T08:30:28Z</time>
      </trkpt>
      <trkpt lat="45.65045" lon="6.2777">
        <ele>978.95</ele>
        <time>2014-04-26T08:31:39Z</time>
      </trkpt>
      <trkpt lat="45.65055" lon="6.27748">
        <ele>985.58</ele>
        <time>2014-04-26T08:32:22Z</time>
      </trkpt>
      <trkpt lat="45.65037" lon="6.27743">
        <ele>1000.38</ele>
        <time>2014-04-26T08:34:02Z</time>
      </trkpt>
      <trkpt lat="45.65019" lon="6.27745">
        <ele>1009.55</ele>
        <time>2014-04-26T08:34:28Z</time>
      </trkpt>
      <trkpt lat="45.65001" lon="6.27746">
        <ele>1022.25</ele>
        <time>2014-04-26T08:35:11Z</time>
      </trkpt>
      <trkpt lat="45.64982" lon="6.27744">
        <ele>1024.66</ele>
        <time>2014-04-26T08:35:56Z</time>
      </trkpt>
      <trkpt lat="45.64969" lon="6.27726">
        <ele>1036.05</ele>
        <time>2014-04-26T08:37:17Z</time>
      </trkpt>
      <trkpt lat="45.64968" lon="6.27699">
        <ele>1046.44</ele>
        <time>2014-04-26T08:38:03Z</time>
      </trkpt>
      <trkpt lat="45.64957" lon="6.27678">
        <ele>1059.36</ele>
        <time>2014-04-26T08:39:00Z</time>
      </trkpt>
      <trkpt lat="45.64964" lon="6.27653">
        <ele>1064.19</ele>
        <time>2014-04-26T08:40:27Z</time>
      </trkpt>
      <trkpt lat="45.64968" lon="6.27628">
        <ele>1081.67</ele>
        <time>2014-04-26T08:41:49Z</time>
      </trkpt>
      <trkpt lat="45.64959" lon="6.27606">
        <ele>1089.16</ele>
        <time>2014-04-26T08:42:40Z</time>
      </trkpt>
      <trkpt lat="45.64942" lon="6.27598">
        <ele>1091.1</ele>
        <time>2014-04-26T08:43:17Z</time>
      </trkpt>
      <trkpt lat="45.64926" lon="6.27585">
        <ele>1102.41</ele>
        <time>2014-04-26T08:44:03Z</time>
      </trkpt>
      <trkpt lat="45.64912" lon="6.27568">
        <ele>1116.18</ele>
        <time>2014-04-26T08:45:04Z</time>
      </trkpt>
      <trkpt lat="45.64895" lon="6.27559">
        <ele>1118.78</ele>
        <time>2014-04-26T08:45:39Z</time>
      </trkpt>
      <trkpt lat="45.64887" lon="6.27535">
        <ele>1133.23</ele>
        <time>2014-04-26T08:46:59Z</time>
      </trkpt>
      <trkpt lat="45.64878" lon="6.27513">
        <ele>1133.1</ele>
        <time>2014-04-26T08:47:41Z</time>
      </trkpt>
      <trkpt lat="45.64873" lon="6.27488">
        <ele>1136.44</ele>
        <time>2014-04-26T08:48:34Z</time>
      </trkpt>
      <trkpt lat="45.64861" lon="6.27468">
        <ele>1154.99</ele>
        <time>2014-04-26T08:49:22Z</time>
      </trkpt>
      <trkpt lat="45.64864" lon="6.27442">
        <ele>1158.55</ele>
        <time>2014-04-26T08:50:08Z</time>
      </trkpt>
      <trkpt lat="45.64881" lon="6.27435">
        <ele>1156.95</ele>
        <time>2014-04-26T08:50:49Z</time>
      </trkpt>
      <trkpt lat="45.64897" lon="6.27424">
        <ele>1157.37</ele>
        <time>2014-04-26T08:51:30Z</time>
      </trkpt>
      <trkpt lat="45.64888" lon="6.27401">
        <ele>1170.79</ele>
        <time>2014-04-26T08:52:32Z</time>
      </trkpt>
      <trkpt lat="45.6487" lon="6.27395">
        <ele>1198.37</ele>
        <time>2014-04-26T08:53:26Z</time>
      </trkpt>
      <trkpt lat="45.64853" lon="6.27389">
        <ele>1200.78</ele>
        <time>2014-04-26T08:53:59Z</time>
      </trkpt>
      <trkpt lat="45.64833" lon="6.27385">
        <ele>1191.14</ele>
        <time>2014-04-26T08:54:24Z</time>
      </trkpt>
      <trkpt lat="45.64835" lon="6.27359">
        <ele>1197.13</ele>
        <time>2014-04-26T08:55:12Z</time>
      </trkpt>
      <trkpt lat="45.64842" lon="6.27336">
        <ele>1210.32</ele>
        <time>2014-04-26T08:56:13Z</time>
      </trkpt>
      <trkpt lat="45.64828" lon="6.27319">
        <ele>1216.98</ele>
        <time>2014-04-26T08:57:20Z</time>
      </trkpt>
      <trkpt lat="45.64828" lon="6.27293">
        <ele>1249.67</ele>
        <time>2014-04-26T08:58:49Z</time>
      </trkpt>
      <trkpt lat="45.64833" lon="6.27268">
        <ele>1254.55</ele>
        <time>2014-04-26T08:59:38Z</time>
      </trkpt>
      <trkpt lat="45.64831" lon="6.27242">
        <ele>1263.99</ele>
        <time>2014-04-26T09:00:25Z</time>
      </trkpt>
      <trkpt lat="45.64817" lon="6.27227">
        <ele>1272.87</ele>
        <time>2014-04-26T09:01:04Z</time>
      </trkpt>
      <trkpt lat="45.64827" lon="6.27204">
        <ele>1263.92</ele>
        <time>2014-04-26T09:01:20Z</time>
      </trkpt>
      <trkpt lat="45.64818" lon="6.27181">
        <ele>1262.33</ele>
        <time>2014-04-26T09:01:52Z</time>
      </trkpt>
      <trkpt lat="45.64803" lon="6.27165">
        <ele>1271.16</ele>
        <time>2014-04-26T09:02:34Z</time>
      </trkpt>
      <trkpt lat="45.64809" lon="6.27141">
        <ele>1291.76</ele>
        <time>2014-04-26T09:03:52Z</time>
      </trkpt>
      <trkpt lat="45.64815" lon="6.27114">
        <ele>1308.47</ele>
        <time>2014-04-26T09:05:06Z</time>
      </trkpt>
      <trkpt lat="45.64813" lon="6.27088">
        <ele>1317.41</ele>
        <time>2014-04-26T09:05:58Z</time>
      </trkpt>
      <trkpt lat="45.64825" lon="6.27069">
        <ele>1315.58</ele>
        <time>2014-04-26T09:06:31Z</time>
      </trkpt>
      <trkpt lat="45.64843" lon="6.27077">
        <ele>1328.55</ele>
        <time>2014-04-26T09:07:19Z</time>
      </trkpt>
      <trkpt lat="45.6486" lon="6.27089">
        <ele>1332.58</ele>
        <time>2014-04-26T09:07:59Z</time>
      </trkpt>
      <trkpt lat="45.64876" lon="6.27079">
        <ele>1336.84</ele>
        <time>2014-04-26T09:08:41Z</time>
      </trkpt>
      <trkpt lat="45.64879" lon="6.27054">
        <ele>1336.06</ele>
        <time>2014-04-26T09:12:17Z</time>
      </trkpt>
      <trkpt lat="45.64896" lon="6.27044">
        <ele>1347.01</ele>
        <time>2014-04-26T09:13:05Z</time>
      </trkpt>
      <trkpt lat="45.64914" lon="6.27039">
        <ele>1354.39</ele>
        <time>2014-04-26T09:14:14Z</time>
      </trkpt>
      <trkpt lat="45.64929" lon="6.27024">
        <ele>1361.1</ele>
        <time>2014-04-26T09:15:00Z</time>
      </trkpt>
      <trkpt lat="45.64944" lon="6.27009">
        <ele>1369.07</ele>
        <time>2014-04-26T09:15:36Z</time>
      </trkpt>
      <trkpt lat="45.64962" lon="6.27006">
        <ele>1373.51</ele>
        <time>2014-04-26T09:16:31Z</time>
      </trkpt>
      <trkpt lat="45.64978" lon="6.26995">
        <ele>1386.72</ele>
        <time>2014-04-26T09:17:49Z</time>
      </trkpt>
      <trkpt lat="45.64991" lon="6.27013">
        <ele>1411.13</ele>
        <time>2014-04-26T09:18:40Z</time>
      </trkpt>
      <trkpt lat="45.65008" lon="6.27022">
        <ele>1402.66</ele>
        <time>2014-04-26T09:19:08Z</time>
      </trkpt>
      <trkpt lat="45.65011" lon="6.26996">
        <ele>1418.06</ele>
        <time>2014-04-26T09:21:13Z</time>
      </trkpt>
      <trkpt lat="45.65015" lon="6.26971">
        <ele>1421.44</ele>
        <time>2014-04-26T09:21:56Z</time>
      </trkpt>
      <trkpt lat="45.65028" lon="6.26953">
        <ele>1429.34</ele>
        <time>2014-04-26T09:22:26Z</time>
      </trkpt>
      <trkpt lat="45.65041" lon="6.26933">
        <ele>1437.89</ele>
        <time>2014-04-26T09:23:45Z</time>
      </trkpt>
      <trkpt lat="45.65051" lon="6.26911">
        <ele>1435.25</ele>
        <time>2014-04-26T09:24:16Z</time>
      </trkpt>
      <trkpt lat="45.65062" lon="6.26891">
        <ele>1445.54</ele>
        <time>2014-04-26T09:25:36Z</time>
      </trkpt>
      <trkpt lat="45.65079" lon="6.26883">
        <ele>1450.95</ele>
        <time>2014-04-26T09:26:31Z</time>
      </trkpt>
      <trkpt lat="45.65098" lon="6.26882">
        <ele>1458.09</ele>
        <time>2014-04-26T09:27:12Z</time>
      </trkpt>
      <trkpt lat="45.65115" lon="6.26876">
        <ele>1465.38</ele>
        <time>2014-04-26T09:27:57Z</time>
      </trkpt>
      <trkpt lat="45.65133" lon="6.26881">
        <ele>1476.97</ele>
        <time>2014-04-26T09:28:55Z</time>
      </trkpt>
      <trkpt lat="45.65152" lon="6.26885">
        <ele>1486.1</ele>
        <time>2014-04-26T09:29:41Z</time>
      </trkpt>
      <trkpt lat="45.65169" lon="6.26894">
        <ele>1503.61</ele>
        <time>2014-04-26T09:30:12Z</time>
      </trkpt>
      <trkpt lat="45.65187" lon="6.26895">
        <ele>1502.65</ele>
        <time>2014-04-26T09:30:54Z</time>
      </trkpt>
      <trkpt lat="45.65206" lon="6.26893">
        <ele>1507.23</ele>
        <time>2014-04-26T09:31:15Z</time>
      </trkpt>
      <trkpt lat="45.65223" lon="6.26886">
        <ele>1516.06</ele>
        <time>2014-04-26T09:32:01Z</time>
      </trkpt>
      <trkpt lat="45.65235" lon="6.26866">
        <ele>1524.39</ele>
        <time>2014-04-26T09:32:37Z</time>
      </trkpt>
      <trkpt lat="45.65246" lon="6.26845">
        <ele>1530.77</ele>
        <time>2014-04-26T09:33:12Z</time>
      </trkpt>
      <trkpt lat="45.65258" lon="6.26826">
        <ele>1529.85</ele>
        <time>2014-04-26T09:33:40Z</time>
      </trkpt>
      <trkpt lat="45.65269" lon="6.26806">
        <ele>1526.1</ele>
        <time>2014-04-26T09:35:17Z</time>
      </trkpt>
      <trkpt lat="45.65283" lon="6.26788">
        <ele>1529.53</ele>
        <time>2014-04-26T09:35:40Z</time>
      </trkpt>
      <trkpt lat="45.65299" lon="6.26775">
        <ele>1532.09</ele>
        <time>2014-04-26T09:36:07Z</time>
      </trkpt>
      <trkpt lat="45.65314" lon="6.2676">
        <ele>1532.34</ele>
        <time>2014-04-26T09:36:45Z</time>
      </trkpt>
      <trkpt lat="45.65331" lon="6.26749">
        <ele>1527.82</ele>
        <time>2014-04-26T09:38:27Z</time>
      </trkpt>
      <trkpt lat="45.65349" lon="6.2674">
        <ele>1524.41</ele>
        <time>2014-04-26T09:39:09Z</time>
      </trkpt>
      <trkpt lat="45.65367" lon="6.26737">
        <ele>1526.76</ele>
        <time>2014-04-26T09:39:33Z</time>
      </trkpt>
      <trkpt lat="45.65385" lon="6.2674">
        <ele>1529.68</ele>
        <time>2014-04-26T09:39:52Z</time>
      </trkpt>
      <trkpt lat="45.65401" lon="6.26751">
        <ele>1535</ele>
        <time>2014-04-26T09:40:21Z</time>
      </trkpt>
      <trkpt lat="45.65417" lon="6.26764">
        <ele>1543.31</ele>
        <time>2014-04-26T09:40:41Z</time>
      </trkpt>
      <trkpt lat="45.65434" lon="6.26776">
        <ele>1546.53</ele>
        <time>2014-04-26T09:41:07Z</time>
      </trkpt>
      <trkpt lat="45.65449" lon="6.2679">
        <ele>1547.48</ele>
        <time>2014-04-26T09:41:39Z</time>
      </trkpt>
      <trkpt lat="45.65464" lon="6.26805">
        <ele>1552.3</ele>
        <time>2014-04-26T09:42:07Z</time>
      </trkpt>
      <trkpt lat="45.65479" lon="6.2682">
        <ele>1556.75</ele>
        <time>2014-04-26T09:42:29Z</time>
      </trkpt>
      <trkpt lat="45.65487" lon="6.26844">
        <ele>1558.58</ele>
        <time>2014-04-26T09:42:53Z</time>
      </trkpt>
      <trkpt lat="45.655" lon="6.26863">
        <ele>1564.91</ele>
        <time>2014-04-26T09:43:18Z</time>
      </trkpt>
      <trkpt lat="45.65505" lon="6.26888">
        <ele>1570.79</ele>
        <time>2014-04-26T09:43:51Z</time>
      </trkpt>
      <trkpt lat="45.65523" lon="6.26893">
        <ele>1579</ele>
        <time>2014-04-26T09:45:01Z</time>
      </trkpt>
      <trkpt lat="45.65537" lon="6.26877">
        <ele>1582.46</ele>
        <time>2014-04-26T09:45:39Z</time>
      </trkpt>
      <trkpt lat="45.65547" lon="6.26854">
        <ele>1585.4</ele>
        <time>2014-04-26T09:46:05Z</time>
      </trkpt>
      <trkpt lat="45.65556" lon="6.26832">
        <ele>1590.47</ele>
        <time>2014-04-26T09:48:51Z</time>
      </trkpt>
      <trkpt lat="45.65542" lon="6.26814">
        <ele>1594.32</ele>
        <time>2014-04-26T09:49:19Z</time>
      </trkpt>
      <trkpt lat="45.65532" lon="6.26793">
        <ele>1595.16</ele>
        <time>2014-04-26T09:49:42Z</time>
      </trkpt>
      <trkpt lat="45.65523" lon="6.2677">
        <ele>1592.19</ele>
        <time>2014-04-26T09:50:13Z</time>
      </trkpt>
      <trkpt lat="45.65509" lon="6.26752">
        <ele>1594.99</ele>
        <time>2014-04-26T09:50:43Z</time>
      </trkpt>
      <trkpt lat="45.655" lon="6.26729">
        <ele>1596.57</ele>
        <time>2014-04-26T09:51:11Z</time>
      </trkpt>
      <trkpt lat="45.65491" lon="6.26706">
        <ele>1597.46</ele>
        <time>2014-04-26T09:51:34Z</time>
      </trkpt>
      <trkpt lat="45.6548" lon="6.26685">
        <ele>1597.7</ele>
        <time>2014-04-26T09:51:54Z</time>
      </trkpt>
      <trkpt lat="45.65469" lon="6.26665">
        <ele>1601.57</ele>
        <time>2014-04-26T09:52:41Z</time>
      </trkpt>
      <trkpt lat="45.65462" lon="6.26641">
        <ele>1609.23</ele>
        <time>2014-04-26T09:53:19Z</time>
      </trkpt>
      <trkpt lat="45.6545" lon="6.26622">
        <ele>1613.64</ele>
        <time>2014-04-26T09:53:46Z</time>
      </trkpt>
      <trkpt lat="45.65441" lon="6.26598">
        <ele>1616.24</ele>
        <time>2014-04-26T09:54:15Z</time>
      </trkpt>
      <trkpt lat="45.65431" lon="6.26576">
        <ele>1619.41</ele>
        <time>2014-04-26T09:55:09Z</time>
      </trkpt>
      <trkpt lat="45.65419" lon="6.26557">
        <ele>1623.53</ele>
        <time>2014-04-26T09:56:15Z</time>
      </trkpt>
      <trkpt lat="45.65403" lon="6.26544">
        <ele>1630.33</ele>
        <time>2014-04-26T09:56:49Z</time>
      </trkpt>
      <trkpt lat="45.65385" lon="6.26536">
        <ele>1638.55</ele>
        <time>2014-04-26T09:57:30Z</time>
      </trkpt>
      <trkpt lat="45.65369" lon="6.26524">
        <ele>1642.39</ele>
        <time>2014-04-26T09:58:22Z</time>
      </trkpt>
      <trkpt lat="45.65352" lon="6.26512">
        <ele>1645.31</ele>
        <time>2014-04-26T09:58:58Z</time>
      </trkpt>
      <trkpt lat="45.65334" lon="6.26507">
        <ele>1647.29</ele>
        <time>2014-04-26T09:59:43Z</time>
      </trkpt>
      <trkpt lat="45.65315" lon="6.26504">
        <ele>1652.14</ele>
        <time>2014-04-26T10:00:40Z</time>
      </trkpt>
      <trkpt lat="45.65297" lon="6.26504">
        <ele>1656.27</ele>
        <time>2014-04-26T10:01:25Z</time>
      </trkpt>
      <trkpt lat="45.65281" lon="6.26492">
        <ele>1663.91</ele>
        <time>2014-04-26T10:02:22Z</time>
      </trkpt>
      <trkpt lat="45.65266" lon="6.26477">
        <ele>1675.72</ele>
        <time>2014-04-26T10:03:21Z</time>
      </trkpt>
      <trkpt lat="45.65257" lon="6.26455">
        <ele>1684.17</ele>
        <time>2014-04-26T10:04:28Z</time>
      </trkpt>
      <trkpt lat="45.65261" lon="6.26429">
        <ele>1690.15</ele>
        <time>2014-04-26T10:05:08Z</time>
      </trkpt>
      <trkpt lat="45.65259" lon="6.26403">
        <ele>1696.35</ele>
        <time>2014-04-26T10:06:30Z</time>
      </trkpt>
      <trkpt lat="45.65241" lon="6.26402">
        <ele>1699.78</ele>
        <time>2014-04-26T10:08:02Z</time>
      </trkpt>
      <trkpt lat="45.65224" lon="6.26395">
        <ele>1703.49</ele>
        <time>2014-04-26T10:09:06Z</time>
      </trkpt>
      <trkpt lat="45.6521" lon="6.26377">
        <ele>1722.33</ele>
        <time>2014-04-26T10:10:04Z</time>
      </trkpt>
      <trkpt lat="45.65202" lon="6.26354">
        <ele>1731.38</ele>
        <time>2014-04-26T10:10:54Z</time>
      </trkpt>
      <trkpt lat="45.65188" lon="6.26338">
        <ele>1738.54</ele>
        <time>2014-04-26T10:11:47Z</time>
      </trkpt>
      <trkpt lat="45.65171" lon="6.26331">
        <ele>1742.95</ele>
        <time>2014-04-26T10:12:31Z</time>
      </trkpt>
      <trkpt lat="45.65153" lon="6.26339">
        <ele>1743.14</ele>
        <time>2014-04-26T10:13:05Z</time>
      </trkpt>
      <trkpt lat="45.65135" lon="6.2634">
        <ele>1746.39</ele>
        <time>2014-04-26T10:13:34Z</time>
      </trkpt>
      <trkpt lat="45.65117" lon="6.26337">
        <ele>1751.19</ele>
        <time>2014-04-26T10:14:14Z</time>
      </trkpt>
      <trkpt lat="45.65099" lon="6.26338">
        <ele>1756.98</ele>
        <time>2014-04-26T10:15:06Z</time>
      </trkpt>
      <trkpt lat="45.65082" lon="6.26348">
        <ele>1762.63</ele>
        <time>2014-04-26T10:15:47Z</time>
      </trkpt>
      <trkpt lat="45.65066" lon="6.26337">
        <ele>1774.75</ele>
        <time>2014-04-26T10:17:27Z</time>
      </trkpt>
      <trkpt lat="45.65049" lon="6.26326">
        <ele>1783.03</ele>
        <time>2014-04-26T10:18:25Z</time>
      </trkpt>
      <trkpt lat="45.65036" lon="6.26308">
        <ele>1792.84</ele>
        <time>2014-04-26T10:19:20Z</time>
      </trkpt>
      <trkpt lat="45.65033" lon="6.26282">
        <ele>1800.06</ele>
        <time>2014-04-26T10:20:09Z</time>
      </trkpt>
      <trkpt lat="45.65035" lon="6.26257">
        <ele>1808</ele>
        <time>2014-04-26T10:20:53Z</time>
      </trkpt>
      <trkpt lat="45.65032" lon="6.26231">
        <ele>1805.7</ele>
        <time>2014-04-26T10:27:54Z</time>
      </trkpt>
      <trkpt lat="45.65014" lon="6.26236">
        <ele>1805.32</ele>
        <time>2014-04-26T10:34:03Z</time>
      </trkpt>
      <trkpt lat="45.64996" lon="6.26227">
        <ele>1802.8</ele>
        <time>2014-04-26T10:34:25Z</time>
      </trkpt>
      <trkpt lat="45.64977" lon="6.26221">
        <ele>1805.05</ele>
        <time>2014-04-26T10:34:42Z</time>
      </trkpt>
      <trkpt lat="45.64962" lon="6.26207">
        <ele>1806.47</ele>
        <time>2014-04-26T10:34:57Z</time>
      </trkpt>
      <trkpt lat="45.64945" lon="6.26194">
        <ele>1807.1</ele>
        <time>2014-04-26T10:35:11Z</time>
      </trkpt>
      <trkpt lat="45.6493" lon="6.26178">
        <ele>1803.82</ele>
        <time>2014-04-26T10:35:32Z</time>
      </trkpt>
      <trkpt lat="45.64917" lon="6.2616">
        <ele>1805.36</ele>
        <time>2014-04-26T10:35:52Z</time>
      </trkpt>
      <trkpt lat="45.64905" lon="6.2614">
        <ele>1805.12</ele>
        <time>2014-04-26T10:36:12Z</time>
      </trkpt>
      <trkpt lat="45.64894" lon="6.26119">
        <ele>1808.34</ele>
        <time>2014-04-26T10:36:33Z</time>
      </trkpt>
      <trkpt lat="45.64887" lon="6.26095">
        <ele>1809.48</ele>
        <time>2014-04-26T10:37:17Z</time>
      </trkpt>
      <trkpt lat="45.64886" lon="6.26068">
        <ele>1809.63</ele>
        <time>2014-04-26T10:37:32Z</time>
      </trkpt>
      <trkpt lat="45.64883" lon="6.26043">
        <ele>1812.44</ele>
        <time>2014-04-26T10:37:51Z</time>
      </trkpt>
      <trkpt lat="45.64877" lon="6.26018">
        <ele>1814.23</ele>
        <time>2014-04-26T10:38:07Z</time>
      </trkpt>
      <trkpt lat="45.64885" lon="6.26042">
        <ele>1817.71</ele>
        <time>2014-04-26T11:12:33Z</time>
      </trkpt>
      <trkpt lat="45.64886" lon="6.26069">
        <ele>1812.99</ele>
        <time>2014-04-26T11:12:51Z</time>
      </trkpt>
      <trkpt lat="45.64888" lon="6.26095">
        <ele>1808.64</ele>
        <time>2014-04-26T11:13:14Z</time>
      </trkpt>
      <trkpt lat="45.64897" lon="6.26117">
        <ele>1811.86</ele>
        <time>2014-04-26T11:13:31Z</time>
      </trkpt>
      <trkpt lat="45.64908" lon="6.26139">
        <ele>1811.25</ele>
        <time>2014-04-26T11:13:55Z</time>
      </trkpt>
      <trkpt lat="45.64917" lon="6.26162">
        <ele>1808.85</ele>
        <time>2014-04-26T11:14:14Z</time>
      </trkpt>
      <trkpt lat="45.64931" lon="6.26179">
        <ele>1808.01</ele>
        <time>2014-04-26T11:14:33Z</time>
      </trkpt>
      <trkpt lat="45.64946" lon="6.26193">
        <ele>1805.5</ele>
        <time>2014-04-26T11:14:55Z</time>
      </trkpt>
      <trkpt lat="45.64961" lon="6.26208">
        <ele>1805.84</ele>
        <time>2014-04-26T11:15:13Z</time>
      </trkpt>
      <trkpt lat="45.64978" lon="6.26218">
        <ele>1806.09</ele>
        <time>2014-04-26T11:15:31Z</time>
      </trkpt>
      <trkpt lat="45.64996" lon="6.26225">
        <ele>1806.22</ele>
        <time>2014-04-26T11:15:48Z</time>
      </trkpt>
      <trkpt lat="45.65013" lon="6.26233">
        <ele>1805.29</ele>
        <time>2014-04-26T11:16:05Z</time>
      </trkpt>
      <trkpt lat="45.65032" lon="6.26235">
        <ele>1803.29</ele>
        <time>2014-04-26T11:16:23Z</time>
      </trkpt>
      <trkpt lat="45.6505" lon="6.26231">
        <ele>1799.81</ele>
        <time>2014-04-26T11:16:41Z</time>
      </trkpt>
      <trkpt lat="45.65068" lon="6.26221">
        <ele>1797.35</ele>
        <time>2014-04-26T11:16:58Z</time>
      </trkpt>
      <trkpt lat="45.65085" lon="6.2621">
        <ele>1793.47</ele>
        <time>2014-04-26T11:17:15Z</time>
      </trkpt>
      <trkpt lat="45.65102" lon="6.262">
        <ele>1790.78</ele>
        <time>2014-04-26T11:17:31Z</time>
      </trkpt>
      <trkpt lat="45.65118" lon="6.26187">
        <ele>1788.51</ele>
        <time>2014-04-26T11:17:48Z</time>
      </trkpt>
      <trkpt lat="45.65136" lon="6.26177">
        <ele>1787.16</ele>
        <time>2014-04-26T11:18:04Z</time>
      </trkpt>
      <trkpt lat="45.65154" lon="6.26169">
        <ele>1783.58</ele>
        <time>2014-04-26T11:18:20Z</time>
      </trkpt>
      <trkpt lat="45.65172" lon="6.26168">
        <ele>1783.39</ele>
        <time>2014-04-26T11:18:36Z</time>
      </trkpt>
      <trkpt lat="45.6519" lon="6.26168">
        <ele>1783.2</ele>
        <time>2014-04-26T11:18:52Z</time>
      </trkpt>
      <trkpt lat="45.65208" lon="6.26176">
        <ele>1780.32</ele>
        <time>2014-04-26T11:19:10Z</time>
      </trkpt>
      <trkpt lat="45.65225" lon="6.26185">
        <ele>1776.49</ele>
        <time>2014-04-26T11:19:28Z</time>
      </trkpt>
      <trkpt lat="45.65243" lon="6.2619">
        <ele>1771.94</ele>
        <time>2014-04-26T11:19:46Z</time>
      </trkpt>
      <trkpt lat="45.65261" lon="6.26193">
        <ele>1763.84</ele>
        <time>2014-04-26T11:20:05Z</time>
      </trkpt>
      <trkpt lat="45.65279" lon="6.26197">
        <ele>1760.2</ele>
        <time>2014-04-26T11:20:23Z</time>
      </trkpt>
      <trkpt lat="45.65298" lon="6.26201">
        <ele>1757.99</ele>
        <time>2014-04-26T11:20:38Z</time>
      </trkpt>
      <trkpt lat="45.65316" lon="6.26203">
        <ele>1757.08</ele>
        <time>2014-04-26T11:21:10Z</time>
      </trkpt>
      <trkpt lat="45.65334" lon="6.26207">
        <ele>1756.46</ele>
        <time>2014-04-26T11:21:25Z</time>
      </trkpt>
      <trkpt lat="45.65353" lon="6.26209">
        <ele>1758.01</ele>
        <time>2014-04-26T11:21:40Z</time>
      </trkpt>
      <trkpt lat="45.65372" lon="6.2621">
        <ele>1755.45</ele>
        <time>2014-04-26T11:21:55Z</time>
      </trkpt>
      <trkpt lat="45.65388" lon="6.26225">
        <ele>1750.05</ele>
        <time>2014-04-26T11:22:23Z</time>
      </trkpt>
      <trkpt lat="45.65395" lon="6.26249">
        <ele>1745.55</ele>
        <time>2014-04-26T11:22:46Z</time>
      </trkpt>
      <trkpt lat="45.6541" lon="6.26266">
        <ele>1742.76</ele>
        <time>2014-04-26T11:23:05Z</time>
      </trkpt>
      <trkpt lat="45.65424" lon="6.26284">
        <ele>1739.23</ele>
        <time>2014-04-26T11:23:21Z</time>
      </trkpt>
      <trkpt lat="45.65436" lon="6.26303">
        <ele>1736.79</ele>
        <time>2014-04-26T11:23:35Z</time>
      </trkpt>
      <trkpt lat="45.65453" lon="6.26314">
        <ele>1737.82</ele>
        <time>2014-04-26T11:23:51Z</time>
      </trkpt>
      <trkpt lat="45.65471" lon="6.26322">
        <ele>1736.75</ele>
        <time>2014-04-26T11:24:09Z</time>
      </trkpt>
      <trkpt lat="45.65488" lon="6.26331">
        <ele>1732.59</ele>
        <time>2014-04-26T11:24:27Z</time>
      </trkpt>
      <trkpt lat="45.65507" lon="6.26333">
        <ele>1733.28</ele>
        <time>2014-04-26T11:24:43Z</time>
      </trkpt>
      <trkpt lat="45.65525" lon="6.26329">
        <ele>1732.33</ele>
        <time>2014-04-26T11:25:01Z</time>
      </trkpt>
      <trkpt lat="45.65543" lon="6.26323">
        <ele>1728.12</ele>
        <time>2014-04-26T11:25:18Z</time>
      </trkpt>
      <trkpt lat="45.65561" lon="6.26316">
        <ele>1727.94</ele>
        <time>2014-04-26T11:25:36Z</time>
      </trkpt>
      <trkpt lat="45.65578" lon="6.26307">
        <ele>1731.4</ele>
        <time>2014-04-26T11:25:51Z</time>
      </trkpt>
      <trkpt lat="45.65597" lon="6.26309">
        <ele>1730.55</ele>
        <time>2014-04-26T11:26:09Z</time>
      </trkpt>
      <trkpt lat="45.65615" lon="6.26313">
        <ele>1734.48</ele>
        <time>2014-04-26T11:26:30Z</time>
      </trkpt>
      <trkpt lat="45.65634" lon="6.26314">
        <ele>1734.23</ele>
        <time>2014-04-26T11:26:46Z</time>
      </trkpt>
      <trkpt lat="45.65652" lon="6.26311">
        <ele>1732.43</ele>
        <time>2014-04-26T11:27:03Z</time>
      </trkpt>
      <trkpt lat="45.6567" lon="6.26308">
        <ele>1734.79</ele>
        <time>2014-04-26T11:27:18Z</time>
      </trkpt>
      <trkpt lat="45.65689" lon="6.26308">
        <ele>1731.27</ele>
        <time>2014-04-26T11:27:35Z</time>
      </trkpt>
      <trkpt lat="45.65707" lon="6.26309">
        <ele>1731.82</ele>
        <time>2014-04-26T11:27:52Z</time>
      </trkpt>
      <trkpt lat="45.65726" lon="6.2631">
        <ele>1733.37</ele>
        <time>2014-04-26T11:28:08Z</time>
      </trkpt>
      <trkpt lat="45.65744" lon="6.26314">
        <ele>1734.7</ele>
        <time>2014-04-26T11:28:22Z</time>
      </trkpt>
      <trkpt lat="45.65762" lon="6.2631">
        <ele>1735.26</ele>
        <time>2014-04-26T11:28:37Z</time>
      </trkpt>
      <trkpt lat="45.6578" lon="6.26312">
        <ele>1732.36</ele>
        <time>2014-04-26T11:28:54Z</time>
      </trkpt>
      <trkpt lat="45.65798" lon="6.26315">
        <ele>1728.63</ele>
        <time>2014-04-26T11:29:10Z</time>
      </trkpt>
      <trkpt lat="45.65817" lon="6.26317">
        <ele>1730.73</ele>
        <time>2014-04-26T11:29:26Z</time>
      </trkpt>
      <trkpt lat="45.65836" lon="6.26319">
        <ele>1729.61</ele>
        <time>2014-04-26T11:29:43Z</time>
      </trkpt>
      <trkpt lat="45.65855" lon="6.2632">
        <ele>1730.33</ele>
        <time>2014-04-26T11:30:00Z</time>
      </trkpt>
      <trkpt lat="45.65874" lon="6.26321">
        <ele>1729.24</ele>
        <time>2014-04-26T11:30:16Z</time>
      </trkpt>
      <trkpt lat="45.65892" lon="6.26318">
        <ele>1729.74</ele>
        <time>2014-04-26T11:30:32Z</time>
      </trkpt>
      <trkpt lat="45.65911" lon="6.26318">
        <ele>1728.97</ele>
        <time>2014-04-26T11:30:48Z</time>
      </trkpt>
      <trkpt lat="45.65929" lon="6.2632">
        <ele>1731.78</ele>
        <time>2014-04-26T11:31:04Z</time>
      </trkpt>
      <trkpt lat="45.65947" lon="6.26329">
        <ele>1736.2</ele>
        <time>2014-04-26T11:33:02Z</time>
      </trkpt>
      <trkpt lat="45.65965" lon="6.26336">
        <ele>1736.68</ele>
        <time>2014-04-26T11:33:30Z</time>
      </trkpt>
      <trkpt lat="45.65981" lon="6.26348">
        <ele>1736.7</ele>
        <time>2014-04-26T11:33:46Z</time>
      </trkpt>
      <trkpt lat="45.65997" lon="6.26361">
        <ele>1734.26</ele>
        <time>2014-04-26T11:34:02Z</time>
      </trkpt>
      <trkpt lat="45.66013" lon="6.26375">
        <ele>1736.73</ele>
        <time>2014-04-26T11:34:29Z</time>
      </trkpt>
      <trkpt lat="45.6603" lon="6.26386">
        <ele>1732.97</ele>
        <time>2014-04-26T11:35:04Z</time>
      </trkpt>
      <trkpt lat="45.66044" lon="6.26404">
        <ele>1730.02</ele>
        <time>2014-04-26T11:35:25Z</time>
      </trkpt>
      <trkpt lat="45.66058" lon="6.2642">
        <ele>1734.24</ele>
        <time>2014-04-26T11:35:52Z</time>
      </trkpt>
      <trkpt lat="45.66075" lon="6.26433">
        <ele>1731.2</ele>
        <time>2014-04-26T11:36:11Z</time>
      </trkpt>
      <trkpt lat="45.66092" lon="6.26446">
        <ele>1733.43</ele>
        <time>2014-04-26T11:37:18Z</time>
      </trkpt>
      <trkpt lat="45.66107" lon="6.26461">
        <ele>1735.05</ele>
        <time>2014-04-26T11:37:41Z</time>
      </trkpt>
      <trkpt lat="45.66122" lon="6.26475">
        <ele>1727.22</ele>
        <time>2014-04-26T11:38:38Z</time>
      </trkpt>
      <trkpt lat="45.66135" lon="6.26493">
        <ele>1723.45</ele>
        <time>2014-04-26T11:39:03Z</time>
      </trkpt>
      <trkpt lat="45.66148" lon="6.26511">
        <ele>1720.84</ele>
        <time>2014-04-26T11:39:26Z</time>
      </trkpt>
      <trkpt lat="45.66151" lon="6.26536">
        <ele>1714.45</ele>
        <time>2014-04-26T11:39:52Z</time>
      </trkpt>
      <trkpt lat="45.66169" lon="6.26542">
        <ele>1710.77</ele>
        <time>2014-04-26T11:40:14Z</time>
      </trkpt>
      <trkpt lat="45.66181" lon="6.26562">
        <ele>1712.34</ele>
        <time>2014-04-26T11:40:37Z</time>
      </trkpt>
      <trkpt lat="45.66191" lon="6.26585">
        <ele>1713.18</ele>
        <time>2014-04-26T11:40:58Z</time>
      </trkpt>
      <trkpt lat="45.66202" lon="6.26605">
        <ele>1714.65</ele>
        <time>2014-04-26T11:41:20Z</time>
      </trkpt>
      <trkpt lat="45.66216" lon="6.26621">
        <ele>1715.85</ele>
        <time>2014-04-26T11:41:43Z</time>
      </trkpt>
      <trkpt lat="45.6623" lon="6.26639">
        <ele>1713.41</ele>
        <time>2014-04-26T11:42:02Z</time>
      </trkpt>
      <trkpt lat="45.66247" lon="6.26652">
        <ele>1707.45</ele>
        <time>2014-04-26T11:42:23Z</time>
      </trkpt>
      <trkpt lat="45.66258" lon="6.26672">
        <ele>1704.84</ele>
        <time>2014-04-26T11:46:49Z</time>
      </trkpt>
      <trkpt lat="45.66275" lon="6.26682">
        <ele>1701.6</ele>
        <time>2014-04-26T11:47:03Z</time>
      </trkpt>
      <trkpt lat="45.66288" lon="6.26701">
        <ele>1694.68</ele>
        <time>2014-04-26T11:47:17Z</time>
      </trkpt>
      <trkpt lat="45.66303" lon="6.26717">
        <ele>1689.7</ele>
        <time>2014-04-26T11:47:34Z</time>
      </trkpt>
      <trkpt lat="45.6632" lon="6.26725">
        <ele>1686.05</ele>
        <time>2014-04-26T11:48:34Z</time>
      </trkpt>
      <trkpt lat="45.66338" lon="6.26717">
        <ele>1677.36</ele>
        <time>2014-04-26T11:49:12Z</time>
      </trkpt>
      <trkpt lat="45.66355" lon="6.26724">
        <ele>1669.75</ele>
        <time>2014-04-26T11:49:44Z</time>
      </trkpt>
      <trkpt lat="45.66372" lon="6.26735">
        <ele>1656.35</ele>
        <time>2014-04-26T11:50:24Z</time>
      </trkpt>
      <trkpt lat="45.66388" lon="6.26747">
        <ele>1650.78</ele>
        <time>2014-04-26T11:52:24Z</time>
      </trkpt>
      <trkpt lat="45.66404" lon="6.2676">
        <ele>1639.53</ele>
        <time>2014-04-26T11:54:39Z</time>
      </trkpt>
      <trkpt lat="45.66417" lon="6.26777">
        <ele>1626.96</ele>
        <time>2014-04-26T11:55:31Z</time>
      </trkpt>
      <trkpt lat="45.66425" lon="6.26801">
        <ele>1624.74</ele>
        <time>2014-04-26T11:55:53Z</time>
      </trkpt>
      <trkpt lat="45.66438" lon="6.26819">
        <ele>1622.07</ele>
        <time>2014-04-26T11:56:22Z</time>
      </trkpt>
      <trkpt lat="45.66453" lon="6.26833">
        <ele>1619.55</ele>
        <time>2014-04-26T11:57:05Z</time>
      </trkpt>
      <trkpt lat="45.6647" lon="6.26843">
        <ele>1615</ele>
        <time>2014-04-26T11:57:39Z</time>
      </trkpt>
      <trkpt lat="45.66483" lon="6.26862">
        <ele>1618.78</ele>
        <time>2014-04-26T11:58:06Z</time>
      </trkpt>
      <trkpt lat="45.66493" lon="6.26885">
        <ele>1611.59</ele>
        <time>2014-04-26T11:58:26Z</time>
      </trkpt>
      <trkpt lat="45.66482" lon="6.26906">
        <ele>1609.73</ele>
        <time>2014-04-26T11:58:50Z</time>
      </trkpt>
      <trkpt lat="45.66494" lon="6.26927">
        <ele>1605.85</ele>
        <time>2014-04-26T11:59:18Z</time>
      </trkpt>
      <trkpt lat="45.66511" lon="6.26937">
        <ele>1607.55</ele>
        <time>2014-04-26T12:00:10Z</time>
      </trkpt>
      <trkpt lat="45.66529" lon="6.26945">
        <ele>1616.62</ele>
        <time>2014-04-26T12:00:26Z</time>
      </trkpt>
      <trkpt lat="45.66548" lon="6.26944">
        <ele>1611.12</ele>
        <time>2014-04-26T12:00:48Z</time>
      </trkpt>
      <trkpt lat="45.66566" lon="6.26938">
        <ele>1609.36</ele>
        <time>2014-04-26T12:01:04Z</time>
      </trkpt>
      <trkpt lat="45.66584" lon="6.26928">
        <ele>1606.67</ele>
        <time>2014-04-26T12:01:31Z</time>
      </trkpt>
      <trkpt lat="45.66602" lon="6.26924">
        <ele>1594.53</ele>
        <time>2014-04-26T12:02:13Z</time>
      </trkpt>
      <trkpt lat="45.66621" lon="6.26926">
        <ele>1580.93</ele>
        <time>2014-04-26T12:02:48Z</time>
      </trkpt>
      <trkpt lat="45.66638" lon="6.26929">
        <ele>1581.84</ele>
        <time>2014-04-26T12:03:09Z</time>
      </trkpt>
      <trkpt lat="45.66657" lon="6.26929">
        <ele>1580.14</ele>
        <time>2014-04-26T12:03:30Z</time>
      </trkpt>
      <trkpt lat="45.66676" lon="6.2693">
        <ele>1576.33</ele>
        <time>2014-04-26T12:04:00Z</time>
      </trkpt>
      <trkpt lat="45.66694" lon="6.26931">
        <ele>1565.24</ele>
        <time>2014-04-26T12:04:30Z</time>
      </trkpt>
      <trkpt lat="45.66712" lon="6.26927">
        <ele>1559.05</ele>
        <time>2014-04-26T12:04:51Z</time>
      </trkpt>
      <trkpt lat="45.66731" lon="6.26923">
        <ele>1549.04</ele>
        <time>2014-04-26T12:05:14Z</time>
      </trkpt>
      <trkpt lat="45.66749" lon="6.26925">
        <ele>1541.87</ele>
        <time>2014-04-26T12:05:37Z</time>
      </trkpt>
      <trkpt lat="45.66766" lon="6.26916">
        <ele>1540.03</ele>
        <time>2014-04-26T12:06:12Z</time>
      </trkpt>
      <trkpt lat="45.66783" lon="6.26908">
        <ele>1530.46</ele>
        <time>2014-04-26T12:06:38Z</time>
      </trkpt>
      <trkpt lat="45.66788" lon="6.26882">
        <ele>1524.87</ele>
        <time>2014-04-26T12:07:18Z</time>
      </trkpt>
      <trkpt lat="45.66789" lon="6.26855">
        <ele>1514.64</ele>
        <time>2014-04-26T12:07:44Z</time>
      </trkpt>
      <trkpt lat="45.6678" lon="6.26832">
        <ele>1514.66</ele>
        <time>2014-04-26T12:08:03Z</time>
      </trkpt>
      <trkpt lat="45.66773" lon="6.26806">
        <ele>1514.22</ele>
        <time>2014-04-26T12:08:21Z</time>
      </trkpt>
      <trkpt lat="45.66772" lon="6.2678">
        <ele>1514.82</ele>
        <time>2014-04-26T12:08:39Z</time>
      </trkpt>
      <trkpt lat="45.66772" lon="6.26754">
        <ele>1511.08</ele>
        <time>2014-04-26T12:09:05Z</time>
      </trkpt>
      <trkpt lat="45.66766" lon="6.26729">
        <ele>1509.52</ele>
        <time>2014-04-26T12:09:25Z</time>
      </trkpt>
      <trkpt lat="45.6676" lon="6.26706">
        <ele>1505.88</ele>
        <time>2014-04-26T12:10:30Z</time>
      </trkpt>
      <trkpt lat="45.66763" lon="6.2668">
        <ele>1500.45</ele>
        <time>2014-04-26T12:11:01Z</time>
      </trkpt>
      <trkpt lat="45.66777" lon="6.26662">
        <ele>1496.38</ele>
        <time>2014-04-26T12:11:25Z</time>
      </trkpt>
      <trkpt lat="45.66786" lon="6.2664">
        <ele>1499.67</ele>
        <time>2014-04-26T12:11:41Z</time>
      </trkpt>
      <trkpt lat="45.66797" lon="6.26619">
        <ele>1504.31</ele>
        <time>2014-04-26T12:11:59Z</time>
      </trkpt>
      <trkpt lat="45.66794" lon="6.26594">
        <ele>1502.5</ele>
        <time>2014-04-26T12:13:58Z</time>
      </trkpt>
      <trkpt lat="45.66798" lon="6.26568">
        <ele>1496.09</ele>
        <time>2014-04-26T12:14:47Z</time>
      </trkpt>
      <trkpt lat="45.66787" lon="6.26545">
        <ele>1493.91</ele>
        <time>2014-04-26T12:15:08Z</time>
      </trkpt>
      <trkpt lat="45.66786" lon="6.26519">
        <ele>1494.12</ele>
        <time>2014-04-26T12:15:38Z</time>
      </trkpt>
      <trkpt lat="45.66779" lon="6.26496">
        <ele>1490.78</ele>
        <time>2014-04-26T12:16:07Z</time>
      </trkpt>
      <trkpt lat="45.66767" lon="6.26476">
        <ele>1490.28</ele>
        <time>2014-04-26T12:16:33Z</time>
      </trkpt>
      <trkpt lat="45.66758" lon="6.26453">
        <ele>1486.42</ele>
        <time>2014-04-26T12:16:50Z</time>
      </trkpt>
      <trkpt lat="45.6675" lon="6.2643">
        <ele>1488.59</ele>
        <time>2014-04-26T12:17:15Z</time>
      </trkpt>
      <trkpt lat="45.66737" lon="6.26411">
        <ele>1480.98</ele>
        <time>2014-04-26T12:17:32Z</time>
      </trkpt>
      <trkpt lat="45.66723" lon="6.26394">
        <ele>1476.2</ele>
        <time>2014-04-26T12:17:48Z</time>
      </trkpt>
      <trkpt lat="45.66709" lon="6.26378">
        <ele>1472.4</ele>
        <time>2014-04-26T12:18:07Z</time>
      </trkpt>
      <trkpt lat="45.66695" lon="6.2636">
        <ele>1466.72</ele>
        <time>2014-04-26T12:18:31Z</time>
      </trkpt>
      <trkpt lat="45.6668" lon="6.26344">
        <ele>1465.23</ele>
        <time>2014-04-26T12:18:54Z</time>
      </trkpt>
      <trkpt lat="45.66666" lon="6.26328">
        <ele>1463.87</ele>
        <time>2014-04-26T12:19:12Z</time>
      </trkpt>
      <trkpt lat="45.66652" lon="6.26311">
        <ele>1466.8</ele>
        <time>2014-04-26T12:19:35Z</time>
      </trkpt>
      <trkpt lat="45.66638" lon="6.26295">
        <ele>1463.68</ele>
        <time>2014-04-26T12:20:48Z</time>
      </trkpt>
      <trkpt lat="45.66622" lon="6.2628">
        <ele>1462.57</ele>
        <time>2014-04-26T12:21:17Z</time>
      </trkpt>
      <trkpt lat="45.66611" lon="6.2626">
        <ele>1461.54</ele>
        <time>2014-04-26T12:21:39Z</time>
      </trkpt>
      <trkpt lat="45.66597" lon="6.26242">
        <ele>1463.68</ele>
        <time>2014-04-26T12:22:45Z</time>
      </trkpt>
      <trkpt lat="45.66581" lon="6.26227">
        <ele>1455.84</ele>
        <time>2014-04-26T12:23:02Z</time>
      </trkpt>
      <trkpt lat="45.66563" lon="6.26218">
        <ele>1451.86</ele>
        <time>2014-04-26T12:23:18Z</time>
      </trkpt>
      <trkpt lat="45.6655" lon="6.26201">
        <ele>1445.47</ele>
        <time>2014-04-26T12:23:41Z</time>
      </trkpt>
      <trkpt lat="45.66537" lon="6.26182">
        <ele>1448.88</ele>
        <time>2014-04-26T12:24:13Z</time>
      </trkpt>
      <trkpt lat="45.66524" lon="6.26165">
        <ele>1452.37</ele>
        <time>2014-04-26T12:24:37Z</time>
      </trkpt>
      <trkpt lat="45.66507" lon="6.26151">
        <ele>1453.17</ele>
        <time>2014-04-26T12:25:02Z</time>
      </trkpt>
      <trkpt lat="45.66492" lon="6.26135">
        <ele>1455.02</ele>
        <time>2014-04-26T12:25:20Z</time>
      </trkpt>
      <trkpt lat="45.66476" lon="6.26122">
        <ele>1456.78</ele>
        <time>2014-04-26T12:25:36Z</time>
      </trkpt>
      <trkpt lat="45.6646" lon="6.26109">
        <ele>1460.56</ele>
        <time>2014-04-26T12:25:54Z</time>
      </trkpt>
      <trkpt lat="45.66444" lon="6.26097">
        <ele>1467.65</ele>
        <time>2014-04-26T12:26:28Z</time>
      </trkpt>
      <trkpt lat="45.66425" lon="6.26092">
        <ele>1459.5</ele>
        <time>2014-04-26T12:26:46Z</time>
      </trkpt>
      <trkpt lat="45.66407" lon="6.26086">
        <ele>1456.23</ele>
        <time>2014-04-26T12:27:03Z</time>
      </trkpt>
      <trkpt lat="45.66391" lon="6.26074">
        <ele>1456.24</ele>
        <time>2014-04-26T12:27:19Z</time>
      </trkpt>
      <trkpt lat="45.66373" lon="6.26064">
        <ele>1451.95</ele>
        <time>2014-04-26T12:27:29Z</time>
      </trkpt>
      <trkpt lat="45.66355" lon="6.26059">
        <ele>1452.17</ele>
        <time>2014-04-26T12:27:54Z</time>
      </trkpt>
      <trkpt lat="45.66336" lon="6.26056">
        <ele>1450.5</ele>
        <time>2014-04-26T12:28:08Z</time>
      </trkpt>
      <trkpt lat="45.66318" lon="6.26049">
        <ele>1455.24</ele>
        <time>2014-04-26T12:28:24Z</time>
      </trkpt>
      <trkpt lat="45.66302" lon="6.26039">
        <ele>1459.95</ele>
        <time>2014-04-26T12:28:53Z</time>
      </trkpt>
      <trkpt lat="45.6629" lon="6.26018">
        <ele>1457.54</ele>
        <time>2014-04-26T12:29:24Z</time>
      </trkpt>
      <trkpt lat="45.66279" lon="6.25998">
        <ele>1457.97</ele>
        <time>2014-04-26T12:30:01Z</time>
      </trkpt>
      <trkpt lat="45.66268" lon="6.25977">
        <ele>1461.01</ele>
        <time>2014-04-26T12:30:31Z</time>
      </trkpt>
      <trkpt lat="45.66253" lon="6.25962">
        <ele>1458.67</ele>
        <time>2014-04-26T12:30:51Z</time>
      </trkpt>
      <trkpt lat="45.66237" lon="6.25949">
        <ele>1461.62</ele>
        <time>2014-04-26T12:31:14Z</time>
      </trkpt>
      <trkpt lat="45.66219" lon="6.25943">
        <ele>1453.99</ele>
        <time>2014-04-26T12:31:32Z</time>
      </trkpt>
      <trkpt lat="45.66201" lon="6.25943">
        <ele>1456.25</ele>
        <time>2014-04-26T12:33:05Z</time>
      </trkpt>
      <trkpt lat="45.66185" lon="6.25927">
        <ele>1460.67</ele>
        <time>2014-04-26T12:33:38Z</time>
      </trkpt>
      <trkpt lat="45.66171" lon="6.25911">
        <ele>1461.23</ele>
        <time>2014-04-26T12:33:59Z</time>
      </trkpt>
      <trkpt lat="45.66159" lon="6.25891">
        <ele>1467.59</ele>
        <time>2014-04-26T12:34:31Z</time>
      </trkpt>
      <trkpt lat="45.66151" lon="6.25867">
        <ele>1465.71</ele>
        <time>2014-04-26T12:34:54Z</time>
      </trkpt>
      <trkpt lat="45.6614" lon="6.25846">
        <ele>1462.75</ele>
        <time>2014-04-26T12:35:17Z</time>
      </trkpt>
      <trkpt lat="45.66129" lon="6.25825">
        <ele>1470.61</ele>
        <time>2014-04-26T12:35:39Z</time>
      </trkpt>
      <trkpt lat="45.66116" lon="6.25807">
        <ele>1473.53</ele>
        <time>2014-04-26T12:35:57Z</time>
      </trkpt>
      <trkpt lat="45.661" lon="6.25794">
        <ele>1469.19</ele>
        <time>2014-04-26T12:36:12Z</time>
      </trkpt>
      <trkpt lat="45.66084" lon="6.2578">
        <ele>1464.15</ele>
        <time>2014-04-26T12:36:30Z</time>
      </trkpt>
      <trkpt lat="45.66067" lon="6.25772">
        <ele>1467.91</ele>
        <time>2014-04-26T12:37:07Z</time>
      </trkpt>
      <trkpt lat="45.66052" lon="6.25756">
        <ele>1478.18</ele>
        <time>2014-04-26T12:37:28Z</time>
      </trkpt>
      <trkpt lat="45.66035" lon="6.2575">
        <ele>1468.74</ele>
        <time>2014-04-26T12:37:37Z</time>
      </trkpt>
      <trkpt lat="45.66016" lon="6.25752">
        <ele>1464.12</ele>
        <time>2014-04-26T12:37:52Z</time>
      </trkpt>
      <trkpt lat="45.65998" lon="6.25756">
        <ele>1463.48</ele>
        <time>2014-04-26T12:38:09Z</time>
      </trkpt>
      <trkpt lat="45.6598" lon="6.25762">
        <ele>1466.94</ele>
        <time>2014-04-26T12:38:29Z</time>
      </trkpt>
      <trkpt lat="45.65962" lon="6.2577">
        <ele>1467.83</ele>
        <time>2014-04-26T12:38:46Z</time>
      </trkpt>
      <trkpt lat="45.65944" lon="6.25772">
        <ele>1473.04</ele>
        <time>2014-04-26T12:39:14Z</time>
      </trkpt>
      <trkpt lat="45.65927" lon="6.25764">
        <ele>1479.26</ele>
        <time>2014-04-26T12:39:42Z</time>
      </trkpt>
      <trkpt lat="45.65909" lon="6.25763">
        <ele>1476.95</ele>
        <time>2014-04-26T12:40:02Z</time>
      </trkpt>
      <trkpt lat="45.65893" lon="6.25776">
        <ele>1472.43</ele>
        <time>2014-04-26T12:40:21Z</time>
      </trkpt>
      <trkpt lat="45.65874" lon="6.25774">
        <ele>1477.78</ele>
        <time>2014-04-26T12:40:51Z</time>
      </trkpt>
      <trkpt lat="45.65859" lon="6.25789">
        <ele>1474.76</ele>
        <time>2014-04-26T12:41:07Z</time>
      </trkpt>
      <trkpt lat="45.65842" lon="6.25798">
        <ele>1475.91</ele>
        <time>2014-04-26T12:41:42Z</time>
      </trkpt>
      <trkpt lat="45.65825" lon="6.25787">
        <ele>1483.83</ele>
        <time>2014-04-26T12:42:10Z</time>
      </trkpt>
      <trkpt lat="45.65807" lon="6.25781">
        <ele>1480.1</ele>
        <time>2014-04-26T12:42:39Z</time>
      </trkpt>
      <trkpt lat="45.6579" lon="6.25791">
        <ele>1480.5</ele>
        <time>2014-04-26T12:43:18Z</time>
      </trkpt>
      <trkpt lat="45.65772" lon="6.25797">
        <ele>1482.33</ele>
        <time>2014-04-26T12:43:44Z</time>
      </trkpt>
      <trkpt lat="45.65754" lon="6.25798">
        <ele>1486.95</ele>
        <time>2014-04-26T12:44:17Z</time>
      </trkpt>
      <trkpt lat="45.65738" lon="6.25811">
        <ele>1484.49</ele>
        <time>2014-04-26T12:44:38Z</time>
      </trkpt>
      <trkpt lat="45.65719" lon="6.25812">
        <ele>1490.56</ele>
        <time>2014-04-26T12:45:05Z</time>
      </trkpt>
      <trkpt lat="45.65702" lon="6.25817">
        <ele>1491.53</ele>
        <time>2014-04-26T12:45:31Z</time>
      </trkpt>
      <trkpt lat="45.65686" lon="6.25832">
        <ele>1493.38</ele>
        <time>2014-04-26T12:45:53Z</time>
      </trkpt>
      <trkpt lat="45.65668" lon="6.25835">
        <ele>1492.54</ele>
        <time>2014-04-26T12:47:49Z</time>
      </trkpt>
      <trkpt lat="45.65655" lon="6.25818">
        <ele>1499.51</ele>
        <time>2014-04-26T12:48:15Z</time>
      </trkpt>
      <trkpt lat="45.65645" lon="6.25795">
        <ele>1515.08</ele>
        <time>2014-04-26T12:48:48Z</time>
      </trkpt>
      <trkpt lat="45.65628" lon="6.25786">
        <ele>1509.19</ele>
        <time>2014-04-26T12:49:09Z</time>
      </trkpt>
      <trkpt lat="45.65611" lon="6.25796">
        <ele>1504.08</ele>
        <time>2014-04-26T12:49:33Z</time>
      </trkpt>
      <trkpt lat="45.65593" lon="6.25805">
        <ele>1501.98</ele>
        <time>2014-04-26T12:49:54Z</time>
      </trkpt>
      <trkpt lat="45.65575" lon="6.25806">
        <ele>1505.94</ele>
        <time>2014-04-26T12:50:13Z</time>
      </trkpt>
      <trkpt lat="45.65557" lon="6.25813">
        <ele>1506.4</ele>
        <time>2014-04-26T12:50:29Z</time>
      </trkpt>
      <trkpt lat="45.6554" lon="6.25803">
        <ele>1505.39</ele>
        <time>2014-04-26T12:50:51Z</time>
      </trkpt>
      <trkpt lat="45.65522" lon="6.25801">
        <ele>1508.24</ele>
        <time>2014-04-26T12:51:16Z</time>
      </trkpt>
      <trkpt lat="45.65503" lon="6.25799">
        <ele>1513.52</ele>
        <time>2014-04-26T12:51:38Z</time>
      </trkpt>
      <trkpt lat="45.65485" lon="6.25797">
        <ele>1519.61</ele>
        <time>2014-04-26T12:52:19Z</time>
      </trkpt>
      <trkpt lat="45.6547" lon="6.25811">
        <ele>1518.16</ele>
        <time>2014-04-26T12:52:44Z</time>
      </trkpt>
      <trkpt lat="45.65459" lon="6.25832">
        <ele>1526.17</ele>
        <time>2014-04-26T12:53:16Z</time>
      </trkpt>
      <trkpt lat="45.65445" lon="6.25849">
        <ele>1530.87</ele>
        <time>2014-04-26T12:53:40Z</time>
      </trkpt>
      <trkpt lat="45.65432" lon="6.25867">
        <ele>1535.74</ele>
        <time>2014-04-26T12:54:15Z</time>
      </trkpt>
      <trkpt lat="45.65414" lon="6.25874">
        <ele>1544.27</ele>
        <time>2014-04-26T12:54:49Z</time>
      </trkpt>
      <trkpt lat="45.65398" lon="6.25884">
        <ele>1553.42</ele>
        <time>2014-04-26T12:55:26Z</time>
      </trkpt>
      <trkpt lat="45.65379" lon="6.25884">
        <ele>1556.18</ele>
        <time>2014-04-26T12:55:56Z</time>
      </trkpt>
      <trkpt lat="45.65362" lon="6.25893">
        <ele>1561.38</ele>
        <time>2014-04-26T12:56:24Z</time>
      </trkpt>
      <trkpt lat="45.65345" lon="6.25899">
        <ele>1562.3</ele>
        <time>2014-04-26T12:57:17Z</time>
      </trkpt>
      <trkpt lat="45.65327" lon="6.25898">
        <ele>1567.48</ele>
        <time>2014-04-26T12:58:40Z</time>
      </trkpt>
      <trkpt lat="45.65311" lon="6.25884">
        <ele>1569.01</ele>
        <time>2014-04-26T12:59:06Z</time>
      </trkpt>
      <trkpt lat="45.65297" lon="6.25866">
        <ele>1570.05</ele>
        <time>2014-04-26T12:59:30Z</time>
      </trkpt>
      <trkpt lat="45.6528" lon="6.25857">
        <ele>1573.95</ele>
        <time>2014-04-26T13:00:01Z</time>
      </trkpt>
      <trkpt lat="45.65269" lon="6.25837">
        <ele>1579.22</ele>
        <time>2014-04-26T13:00:43Z</time>
      </trkpt>
      <trkpt lat="45.65258" lon="6.25815">
        <ele>1592.17</ele>
        <time>2014-04-26T13:01:49Z</time>
      </trkpt>
      <trkpt lat="45.6524" lon="6.25816">
        <ele>1600.04</ele>
        <time>2014-04-26T13:02:50Z</time>
      </trkpt>
      <trkpt lat="45.65222" lon="6.2582">
        <ele>1603.82</ele>
        <time>2014-04-26T13:03:13Z</time>
      </trkpt>
      <trkpt lat="45.65204" lon="6.25826">
        <ele>1606.65</ele>
        <time>2014-04-26T13:03:31Z</time>
      </trkpt>
      <trkpt lat="45.65186" lon="6.25827">
        <ele>1600.71</ele>
        <time>2014-04-26T13:03:54Z</time>
      </trkpt>
      <trkpt lat="45.65171" lon="6.25843">
        <ele>1601.6</ele>
        <time>2014-04-26T13:04:13Z</time>
      </trkpt>
      <trkpt lat="45.65155" lon="6.25854">
        <ele>1599.46</ele>
        <time>2014-04-26T13:04:30Z</time>
      </trkpt>
      <trkpt lat="45.65137" lon="6.25857">
        <ele>1600.41</ele>
        <time>2014-04-26T13:04:47Z</time>
      </trkpt>
      <trkpt lat="45.65118" lon="6.25858">
        <ele>1601.68</ele>
        <time>2014-04-26T13:05:08Z</time>
      </trkpt>
      <trkpt lat="45.65101" lon="6.25866">
        <ele>1606.86</ele>
        <time>2014-04-26T13:05:45Z</time>
      </trkpt>
      <trkpt lat="45.65086" lon="6.25881">
        <ele>1613.56</ele>
        <time>2014-04-26T13:06:20Z</time>
      </trkpt>
      <trkpt lat="45.65071" lon="6.25895">
        <ele>1616.01</ele>
        <time>2014-04-26T13:06:45Z</time>
      </trkpt>
      <trkpt lat="45.65053" lon="6.25899">
        <ele>1621.7</ele>
        <time>2014-04-26T13:07:40Z</time>
      </trkpt>
      <trkpt lat="45.65034" lon="6.25895">
        <ele>1626.04</ele>
        <time>2014-04-26T13:08:11Z</time>
      </trkpt>
      <trkpt lat="45.65016" lon="6.25894">
        <ele>1623.59</ele>
        <time>2014-04-26T13:09:10Z</time>
      </trkpt>
      <trkpt lat="45.64999" lon="6.25883">
        <ele>1626.13</ele>
        <time>2014-04-26T13:09:59Z</time>
      </trkpt>
      <trkpt lat="45.64987" lon="6.25864">
        <ele>1635.46</ele>
        <time>2014-04-26T13:10:30Z</time>
      </trkpt>
      <trkpt lat="45.64971" lon="6.25854">
        <ele>1637.95</ele>
        <time>2014-04-26T13:14:10Z</time>
      </trkpt>
      <trkpt lat="45.64954" lon="6.25843">
        <ele>1646.25</ele>
        <time>2014-04-26T13:14:58Z</time>
      </trkpt>
      <trkpt lat="45.64938" lon="6.2583">
        <ele>1653.33</ele>
        <time>2014-04-26T13:15:33Z</time>
      </trkpt>
      <trkpt lat="45.64923" lon="6.25817">
        <ele>1656.79</ele>
        <time>2014-04-26T13:16:07Z</time>
      </trkpt>
      <trkpt lat="45.64909" lon="6.25799">
        <ele>1658.95</ele>
        <time>2014-04-26T13:16:40Z</time>
      </trkpt>
      <trkpt lat="45.64899" lon="6.25778">
        <ele>1657.47</ele>
        <time>2014-04-26T13:17:08Z</time>
      </trkpt>
      <trkpt lat="45.6488" lon="6.25776">
        <ele>1670.73</ele>
        <time>2014-04-26T13:18:19Z</time>
      </trkpt>
      <trkpt lat="45.64862" lon="6.2577">
        <ele>1676.76</ele>
        <time>2014-04-26T13:18:58Z</time>
      </trkpt>
      <trkpt lat="45.64844" lon="6.25773">
        <ele>1683.39</ele>
        <time>2014-04-26T13:19:39Z</time>
      </trkpt>
      <trkpt lat="45.64826" lon="6.25778">
        <ele>1686.04</ele>
        <time>2014-04-26T13:20:33Z</time>
      </trkpt>
      <trkpt lat="45.64807" lon="6.25777">
        <ele>1684.82</ele>
        <time>2014-04-26T13:26:24Z</time>
      </trkpt>
      <trkpt lat="45.64792" lon="6.25764">
        <ele>1680.97</ele>
        <time>2014-04-26T13:26:42Z</time>
      </trkpt>
      <trkpt lat="45.64776" lon="6.2575">
        <ele>1677.27</ele>
        <time>2014-04-26T13:27:00Z</time>
      </trkpt>
      <trkpt lat="45.64758" lon="6.25743">
        <ele>1671.69</ele>
        <time>2014-04-26T13:27:16Z</time>
      </trkpt>
      <trkpt lat="45.64741" lon="6.25734">
        <ele>1667.63</ele>
        <time>2014-04-26T13:27:31Z</time>
      </trkpt>
      <trkpt lat="45.64724" lon="6.25726">
        <ele>1669.09</ele>
        <time>2014-04-26T13:27:50Z</time>
      </trkpt>
      <trkpt lat="45.64706" lon="6.25724">
        <ele>1672.35</ele>
        <time>2014-04-26T13:28:07Z</time>
      </trkpt>
      <trkpt lat="45.64688" lon="6.25718">
        <ele>1675.36</ele>
        <time>2014-04-26T13:28:30Z</time>
      </trkpt>
      <trkpt lat="45.6467" lon="6.2571">
        <ele>1666.84</ele>
        <time>2014-04-26T13:28:45Z</time>
      </trkpt>
      <trkpt lat="45.64676" lon="6.25735">
        <ele>1650.05</ele>
        <time>2014-04-26T13:29:40Z</time>
      </trkpt>
      <trkpt lat="45.64688" lon="6.25755">
        <ele>1642.43</ele>
        <time>2014-04-26T13:30:01Z</time>
      </trkpt>
      <trkpt lat="45.64698" lon="6.25777">
        <ele>1640.73</ele>
        <time>2014-04-26T13:30:39Z</time>
      </trkpt>
      <trkpt lat="45.64707" lon="6.25801">
        <ele>1640.34</ele>
        <time>2014-04-26T13:30:57Z</time>
      </trkpt>
      <trkpt lat="45.64714" lon="6.25826">
        <ele>1633.6</ele>
        <time>2014-04-26T13:31:13Z</time>
      </trkpt>
      <trkpt lat="45.64716" lon="6.25852">
        <ele>1629.46</ele>
        <time>2014-04-26T13:31:31Z</time>
      </trkpt>
      <trkpt lat="45.64716" lon="6.25878">
        <ele>1627.66</ele>
        <time>2014-04-26T13:31:47Z</time>
      </trkpt>
      <trkpt lat="45.64698" lon="6.25874">
        <ele>1620.28</ele>
        <time>2014-04-26T13:32:35Z</time>
      </trkpt>
      <trkpt lat="45.64684" lon="6.25858">
        <ele>1623.5</ele>
        <time>2014-04-26T13:32:55Z</time>
      </trkpt>
      <trkpt lat="45.64668" lon="6.25844">
        <ele>1621.5</ele>
        <time>2014-04-26T13:33:15Z</time>
      </trkpt>
      <trkpt lat="45.64651" lon="6.25836">
        <ele>1618.3</ele>
        <time>2014-04-26T13:33:35Z</time>
      </trkpt>
      <trkpt lat="45.64634" lon="6.25824">
        <ele>1614.64</ele>
        <time>2014-04-26T13:33:51Z</time>
      </trkpt>
      <trkpt lat="45.64619" lon="6.25809">
        <ele>1608.14</ele>
        <time>2014-04-26T13:34:38Z</time>
      </trkpt>
      <trkpt lat="45.646" lon="6.25801">
        <ele>1603.93</ele>
        <time>2014-04-26T13:34:57Z</time>
      </trkpt>
      <trkpt lat="45.64607" lon="6.25826">
        <ele>1591.91</ele>
        <time>2014-04-26T13:35:47Z</time>
      </trkpt>
      <trkpt lat="45.64612" lon="6.25852">
        <ele>1586.88</ele>
        <time>2014-04-26T13:36:06Z</time>
      </trkpt>
      <trkpt lat="45.64621" lon="6.25875">
        <ele>1580.79</ele>
        <time>2014-04-26T13:36:25Z</time>
      </trkpt>
      <trkpt lat="45.64633" lon="6.25895">
        <ele>1576.35</ele>
        <time>2014-04-26T13:36:42Z</time>
      </trkpt>
      <trkpt lat="45.64629" lon="6.25921">
        <ele>1572.6</ele>
        <time>2014-04-26T13:36:59Z</time>
      </trkpt>
      <trkpt lat="45.64613" lon="6.25908">
        <ele>1576.03</ele>
        <time>2014-04-26T13:44:37Z</time>
      </trkpt>
      <trkpt lat="45.64595" lon="6.259">
        <ele>1573.51</ele>
        <time>2014-04-26T13:44:59Z</time>
      </trkpt>
      <trkpt lat="45.64581" lon="6.25885">
        <ele>1576.83</ele>
        <time>2014-04-26T13:45:18Z</time>
      </trkpt>
      <trkpt lat="45.64562" lon="6.25879">
        <ele>1575.37</ele>
        <time>2014-04-26T13:45:38Z</time>
      </trkpt>
      <trkpt lat="45.64544" lon="6.25871">
        <ele>1572.49</ele>
        <time>2014-04-26T13:46:04Z</time>
      </trkpt>
      <trkpt lat="45.6453" lon="6.25854">
        <ele>1564.98</ele>
        <time>2014-04-26T13:46:18Z</time>
      </trkpt>
      <trkpt lat="45.64515" lon="6.2584">
        <ele>1556.93</ele>
        <time>2014-04-26T13:46:38Z</time>
      </trkpt>
      <trkpt lat="45.64497" lon="6.25836">
        <ele>1555.31</ele>
        <time>2014-04-26T13:47:03Z</time>
      </trkpt>
      <trkpt lat="45.64479" lon="6.25839">
        <ele>1554.12</ele>
        <time>2014-04-26T13:47:24Z</time>
      </trkpt>
      <trkpt lat="45.6446" lon="6.25838">
        <ele>1548.41</ele>
        <time>2014-04-26T13:47:42Z</time>
      </trkpt>
      <trkpt lat="45.64444" lon="6.2585">
        <ele>1546.96</ele>
        <time>2014-04-26T13:48:10Z</time>
      </trkpt>
      <trkpt lat="45.64425" lon="6.25853">
        <ele>1540.17</ele>
        <time>2014-04-26T13:48:27Z</time>
      </trkpt>
      <trkpt lat="45.64408" lon="6.2586">
        <ele>1533.37</ele>
        <time>2014-04-26T13:49:35Z</time>
      </trkpt>
      <trkpt lat="45.64389" lon="6.25864">
        <ele>1523.97</ele>
        <time>2014-04-26T13:49:56Z</time>
      </trkpt>
      <trkpt lat="45.64371" lon="6.25868">
        <ele>1518.25</ele>
        <time>2014-04-26T13:50:12Z</time>
      </trkpt>
      <trkpt lat="45.64389" lon="6.25878">
        <ele>1507.32</ele>
        <time>2014-04-26T13:51:00Z</time>
      </trkpt>
      <trkpt lat="45.64407" lon="6.25884">
        <ele>1505.3</ele>
        <time>2014-04-26T13:51:22Z</time>
      </trkpt>
      <trkpt lat="45.64425" lon="6.25891">
        <ele>1502.6</ele>
        <time>2014-04-26T13:51:42Z</time>
      </trkpt>
      <trkpt lat="45.64442" lon="6.259">
        <ele>1499.51</ele>
        <time>2014-04-26T13:52:07Z</time>
      </trkpt>
      <trkpt lat="45.64429" lon="6.25918">
        <ele>1491.14</ele>
        <time>2014-04-26T13:52:50Z</time>
      </trkpt>
      <trkpt lat="45.64411" lon="6.25927">
        <ele>1486.26</ele>
        <time>2014-04-26T13:53:09Z</time>
      </trkpt>
      <trkpt lat="45.64394" lon="6.25938">
        <ele>1484.53</ele>
        <time>2014-04-26T13:53:28Z</time>
      </trkpt>
      <trkpt lat="45.64376" lon="6.25944">
        <ele>1477.78</ele>
        <time>2014-04-26T13:53:43Z</time>
      </trkpt>
      <trkpt lat="45.64358" lon="6.2595">
        <ele>1473.67</ele>
        <time>2014-04-26T13:54:26Z</time>
      </trkpt>
      <trkpt lat="45.64341" lon="6.25959">
        <ele>1468.21</ele>
        <time>2014-04-26T13:54:49Z</time>
      </trkpt>
      <trkpt lat="45.64322" lon="6.25967">
        <ele>1463.08</ele>
        <time>2014-04-26T13:55:04Z</time>
      </trkpt>
      <trkpt lat="45.64304" lon="6.25971">
        <ele>1459.07</ele>
        <time>2014-04-26T13:55:19Z</time>
      </trkpt>
      <trkpt lat="45.64286" lon="6.25975">
        <ele>1458.82</ele>
        <time>2014-04-26T13:55:37Z</time>
      </trkpt>
      <trkpt lat="45.64268" lon="6.25973">
        <ele>1454.5</ele>
        <time>2014-04-26T13:55:54Z</time>
      </trkpt>
      <trkpt lat="45.64251" lon="6.25983">
        <ele>1452.05</ele>
        <time>2014-04-26T13:56:23Z</time>
      </trkpt>
      <trkpt lat="45.64237" lon="6.26">
        <ele>1443.67</ele>
        <time>2014-04-26T13:56:46Z</time>
      </trkpt>
      <trkpt lat="45.64219" lon="6.25997">
        <ele>1441.97</ele>
        <time>2014-04-26T13:56:59Z</time>
      </trkpt>
      <trkpt lat="45.64201" lon="6.25993">
        <ele>1436.8</ele>
        <time>2014-04-26T13:57:28Z</time>
      </trkpt>
      <trkpt lat="45.64184" lon="6.26006">
        <ele>1436.18</ele>
        <time>2014-04-26T13:57:59Z</time>
      </trkpt>
      <trkpt lat="45.64173" lon="6.26026">
        <ele>1432.73</ele>
        <time>2014-04-26T13:58:19Z</time>
      </trkpt>
      <trkpt lat="45.64155" lon="6.26028">
        <ele>1426.97</ele>
        <time>2014-04-26T13:58:48Z</time>
      </trkpt>
      <trkpt lat="45.64136" lon="6.26025">
        <ele>1425.6</ele>
        <time>2014-04-26T13:59:12Z</time>
      </trkpt>
      <trkpt lat="45.64118" lon="6.26031">
        <ele>1421.29</ele>
        <time>2014-04-26T13:59:32Z</time>
      </trkpt>
      <trkpt lat="45.64131" lon="6.2605">
        <ele>1415.48</ele>
        <time>2014-04-26T13:59:55Z</time>
      </trkpt>
      <trkpt lat="45.64145" lon="6.26067">
        <ele>1412.25</ele>
        <time>2014-04-26T14:00:22Z</time>
      </trkpt>
      <trkpt lat="45.64129" lon="6.2608">
        <ele>1412.76</ele>
        <time>2014-04-26T14:00:41Z</time>
      </trkpt>
      <trkpt lat="45.64111" lon="6.26085">
        <ele>1406.69</ele>
        <time>2014-04-26T14:00:56Z</time>
      </trkpt>
      <trkpt lat="45.64125" lon="6.26101">
        <ele>1395.65</ele>
        <time>2014-04-26T14:01:30Z</time>
      </trkpt>
      <trkpt lat="45.64139" lon="6.26118">
        <ele>1392.5</ele>
        <time>2014-04-26T14:01:51Z</time>
      </trkpt>
      <trkpt lat="45.64152" lon="6.26137">
        <ele>1387.13</ele>
        <time>2014-04-26T14:02:10Z</time>
      </trkpt>
      <trkpt lat="45.64167" lon="6.26152">
        <ele>1383.29</ele>
        <time>2014-04-26T14:02:35Z</time>
      </trkpt>
      <trkpt lat="45.64185" lon="6.26148">
        <ele>1381.59</ele>
        <time>2014-04-26T14:02:58Z</time>
      </trkpt>
      <trkpt lat="45.64198" lon="6.26167">
        <ele>1379.41</ele>
        <time>2014-04-26T14:03:19Z</time>
      </trkpt>
      <trkpt lat="45.6421" lon="6.26188">
        <ele>1377.44</ele>
        <time>2014-04-26T14:03:35Z</time>
      </trkpt>
      <trkpt lat="45.64228" lon="6.26191">
        <ele>1368.29</ele>
        <time>2014-04-26T14:04:04Z</time>
      </trkpt>
      <trkpt lat="45.64244" lon="6.26202">
        <ele>1365.8</ele>
        <time>2014-04-26T14:04:26Z</time>
      </trkpt>
      <trkpt lat="45.64263" lon="6.26206">
        <ele>1361.08</ele>
        <time>2014-04-26T14:04:43Z</time>
      </trkpt>
      <trkpt lat="45.64281" lon="6.26214">
        <ele>1352.74</ele>
        <time>2014-04-26T14:05:00Z</time>
      </trkpt>
      <trkpt lat="45.6428" lon="6.26241">
        <ele>1345.35</ele>
        <time>2014-04-26T14:05:28Z</time>
      </trkpt>
      <trkpt lat="45.64273" lon="6.26266">
        <ele>1339.94</ele>
        <time>2014-04-26T14:05:46Z</time>
      </trkpt>
      <trkpt lat="45.64263" lon="6.26287">
        <ele>1330.27</ele>
        <time>2014-04-26T14:06:10Z</time>
      </trkpt>
      <trkpt lat="45.64245" lon="6.26285">
        <ele>1333.22</ele>
        <time>2014-04-26T14:06:29Z</time>
      </trkpt>
      <trkpt lat="45.64229" lon="6.26297">
        <ele>1325.87</ele>
        <time>2014-04-26T14:06:55Z</time>
      </trkpt>
      <trkpt lat="45.6421" lon="6.263">
        <ele>1325.86</ele>
        <time>2014-04-26T14:07:10Z</time>
      </trkpt>
      <trkpt lat="45.64192" lon="6.26293">
        <ele>1327.39</ele>
        <time>2014-04-26T14:08:01Z</time>
      </trkpt>
      <trkpt lat="45.6418" lon="6.26313">
        <ele>1324.63</ele>
        <time>2014-04-26T14:08:25Z</time>
      </trkpt>
      <trkpt lat="45.64161" lon="6.2632">
        <ele>1316.87</ele>
        <time>2014-04-26T14:08:42Z</time>
      </trkpt>
      <trkpt lat="45.64143" lon="6.26324">
        <ele>1316.21</ele>
        <time>2014-04-26T14:08:58Z</time>
      </trkpt>
      <trkpt lat="45.64126" lon="6.26332">
        <ele>1303.81</ele>
        <time>2014-04-26T14:09:22Z</time>
      </trkpt>
      <trkpt lat="45.64108" lon="6.26339">
        <ele>1300.99</ele>
        <time>2014-04-26T14:09:36Z</time>
      </trkpt>
      <trkpt lat="45.64123" lon="6.26355">
        <ele>1291.64</ele>
        <time>2014-04-26T14:10:48Z</time>
      </trkpt>
      <trkpt lat="45.64141" lon="6.26363">
        <ele>1291.64</ele>
        <time>2014-04-26T14:11:11Z</time>
      </trkpt>
      <trkpt lat="45.64159" lon="6.26368">
        <ele>1288.47</ele>
        <time>2014-04-26T14:11:28Z</time>
      </trkpt>
      <trkpt lat="45.64167" lon="6.26392">
        <ele>1286.95</ele>
        <time>2014-04-26T14:11:51Z</time>
      </trkpt>
      <trkpt lat="45.64175" lon="6.26416">
        <ele>1278.51</ele>
        <time>2014-04-26T14:12:13Z</time>
      </trkpt>
      <trkpt lat="45.64173" lon="6.26443">
        <ele>1270.36</ele>
        <time>2014-04-26T14:12:33Z</time>
      </trkpt>
      <trkpt lat="45.64191" lon="6.26445">
        <ele>1265.66</ele>
        <time>2014-04-26T14:13:00Z</time>
      </trkpt>
      <trkpt lat="45.64208" lon="6.26436">
        <ele>1263.7</ele>
        <time>2014-04-26T14:13:25Z</time>
      </trkpt>
      <trkpt lat="45.64227" lon="6.26435">
        <ele>1265.08</ele>
        <time>2014-04-26T14:13:43Z</time>
      </trkpt>
      <trkpt lat="45.64244" lon="6.26431">
        <ele>1270.35</ele>
        <time>2014-04-26T14:14:00Z</time>
      </trkpt>
      <trkpt lat="45.64262" lon="6.2644">
        <ele>1273.52</ele>
        <time>2014-04-26T14:14:15Z</time>
      </trkpt>
      <trkpt lat="45.64277" lon="6.26454">
        <ele>1272.67</ele>
        <time>2014-04-26T14:14:35Z</time>
      </trkpt>
      <trkpt lat="45.64294" lon="6.26464">
        <ele>1270.29</ele>
        <time>2014-04-26T14:14:57Z</time>
      </trkpt>
      <trkpt lat="45.64278" lon="6.26477">
        <ele>1258.38</ele>
        <time>2014-04-26T14:15:34Z</time>
      </trkpt>
      <trkpt lat="45.6426" lon="6.26482">
        <ele>1242.57</ele>
        <time>2014-04-26T14:15:56Z</time>
      </trkpt>
      <trkpt lat="45.64255" lon="6.26507">
        <ele>1231.9</ele>
        <time>2014-04-26T14:16:26Z</time>
      </trkpt>
      <trkpt lat="45.64244" lon="6.26528">
        <ele>1225.96</ele>
        <time>2014-04-26T14:16:44Z</time>
      </trkpt>
      <trkpt lat="45.6423" lon="6.26546">
        <ele>1219.68</ele>
        <time>2014-04-26T14:17:02Z</time>
      </trkpt>
      <trkpt lat="45.64216" lon="6.26561">
        <ele>1222.62</ele>
        <time>2014-04-26T14:17:13Z</time>
      </trkpt>
      <trkpt lat="45.64199" lon="6.26573">
        <ele>1217.7</ele>
        <time>2014-04-26T14:17:33Z</time>
      </trkpt>
      <trkpt lat="45.64188" lon="6.26593">
        <ele>1207.68</ele>
        <time>2014-04-26T14:17:54Z</time>
      </trkpt>
      <trkpt lat="45.64174" lon="6.26609">
        <ele>1200.28</ele>
        <time>2014-04-26T14:18:19Z</time>
      </trkpt>
      <trkpt lat="45.64164" lon="6.26631">
        <ele>1199.84</ele>
        <time>2014-04-26T14:18:35Z</time>
      </trkpt>
      <trkpt lat="45.64152" lon="6.26651">
        <ele>1194.85</ele>
        <time>2014-04-26T14:18:53Z</time>
      </trkpt>
      <trkpt lat="45.64136" lon="6.26665">
        <ele>1195.26</ele>
        <time>2014-04-26T14:19:08Z</time>
      </trkpt>
      <trkpt lat="45.64121" lon="6.26681">
        <ele>1188.78</ele>
        <time>2014-04-26T14:19:23Z</time>
      </trkpt>
      <trkpt lat="45.64102" lon="6.26686">
        <ele>1190.27</ele>
        <time>2014-04-26T14:19:35Z</time>
      </trkpt>
      <trkpt lat="45.64084" lon="6.26677">
        <ele>1187.28</ele>
        <time>2014-04-26T14:20:30Z</time>
      </trkpt>
      <trkpt lat="45.64077" lon="6.26652">
        <ele>1186.35</ele>
        <time>2014-04-26T14:20:48Z</time>
      </trkpt>
      <trkpt lat="45.64073" lon="6.26679">
        <ele>1186.32</ele>
        <time>2014-04-26T14:21:23Z</time>
      </trkpt>
      <trkpt lat="45.64076" lon="6.26705">
        <ele>1185.13</ele>
        <time>2014-04-26T14:21:46Z</time>
      </trkpt>
      <trkpt lat="45.64082" lon="6.2673">
        <ele>1179.22</ele>
        <time>2014-04-26T14:22:03Z</time>
      </trkpt>
      <trkpt lat="45.64094" lon="6.26751">
        <ele>1172.11</ele>
        <time>2014-04-26T14:22:20Z</time>
      </trkpt>
      <trkpt lat="45.64104" lon="6.26773">
        <ele>1170.34</ele>
        <time>2014-04-26T14:22:35Z</time>
      </trkpt>
      <trkpt lat="45.6412" lon="6.26762">
        <ele>1163.93</ele>
        <time>2014-04-26T14:23:03Z</time>
      </trkpt>
      <trkpt lat="45.64133" lon="6.2678">
        <ele>1149</ele>
        <time>2014-04-26T14:23:36Z</time>
      </trkpt>
      <trkpt lat="45.64132" lon="6.26808">
        <ele>1146.54</ele>
        <time>2014-04-26T14:23:59Z</time>
      </trkpt>
      <trkpt lat="45.64123" lon="6.2683">
        <ele>1137.21</ele>
        <time>2014-04-26T14:24:16Z</time>
      </trkpt>
      <trkpt lat="45.64142" lon="6.26824">
        <ele>1135.04</ele>
        <time>2014-04-26T14:25:19Z</time>
      </trkpt>
      <trkpt lat="45.64155" lon="6.26806">
        <ele>1131.97</ele>
        <time>2014-04-26T14:25:38Z</time>
      </trkpt>
      <trkpt lat="45.64169" lon="6.26789">
        <ele>1125.37</ele>
        <time>2014-04-26T14:26:08Z</time>
      </trkpt>
      <trkpt lat="45.64181" lon="6.26769">
        <ele>1118.06</ele>
        <time>2014-04-26T14:26:25Z</time>
      </trkpt>
      <trkpt lat="45.64191" lon="6.2679">
        <ele>1118.77</ele>
        <time>2014-04-26T14:26:56Z</time>
      </trkpt>
      <trkpt lat="45.64192" lon="6.26817">
        <ele>1121.54</ele>
        <time>2014-04-26T14:27:13Z</time>
      </trkpt>
      <trkpt lat="45.64186" lon="6.26843">
        <ele>1118.81</ele>
        <time>2014-04-26T14:27:29Z</time>
      </trkpt>
      <trkpt lat="45.64188" lon="6.2687">
        <ele>1121.39</ele>
        <time>2014-04-26T14:27:47Z</time>
      </trkpt>
      <trkpt lat="45.64183" lon="6.26895">
        <ele>1127.35</ele>
        <time>2014-04-26T14:28:18Z</time>
      </trkpt>
      <trkpt lat="45.64179" lon="6.26921">
        <ele>1130.79</ele>
        <time>2014-04-26T14:28:36Z</time>
      </trkpt>
      <trkpt lat="45.64176" lon="6.26947">
        <ele>1131.76</ele>
        <time>2014-04-26T14:28:53Z</time>
      </trkpt>
      <trkpt lat="45.64164" lon="6.26966">
        <ele>1128.77</ele>
        <time>2014-04-26T14:29:18Z</time>
      </trkpt>
      <trkpt lat="45.64156" lon="6.2699">
        <ele>1113.9</ele>
        <time>2014-04-26T14:29:37Z</time>
      </trkpt>
      <trkpt lat="45.64152" lon="6.27015">
        <ele>1104.43</ele>
        <time>2014-04-26T14:29:55Z</time>
      </trkpt>
      <trkpt lat="45.64151" lon="6.27043">
        <ele>1101.62</ele>
        <time>2014-04-26T14:30:11Z</time>
      </trkpt>
      <trkpt lat="45.64151" lon="6.27069">
        <ele>1086.46</ele>
        <time>2014-04-26T14:30:30Z</time>
      </trkpt>
      <trkpt lat="45.64149" lon="6.27095">
        <ele>1084.25</ele>
        <time>2014-04-26T14:30:44Z</time>
      </trkpt>
      <trkpt lat="45.64154" lon="6.27122">
        <ele>1084.95</ele>
        <time>2014-04-26T14:31:01Z</time>
      </trkpt>
      <trkpt lat="45.64158" lon="6.27147">
        <ele>1081.61</ele>
        <time>2014-04-26T14:31:19Z</time>
      </trkpt>
      <trkpt lat="45.64159" lon="6.27173">
        <ele>1082.07</ele>
        <time>2014-04-26T14:31:34Z</time>
      </trkpt>
      <trkpt lat="45.64161" lon="6.272">
        <ele>1078.02</ele>
        <time>2014-04-26T14:31:55Z</time>
      </trkpt>
      <trkpt lat="45.64161" lon="6.27225">
        <ele>1079.3</ele>
        <time>2014-04-26T14:32:07Z</time>
      </trkpt>
      <trkpt lat="45.64162" lon="6.27253">
        <ele>1072.66</ele>
        <time>2014-04-26T14:32:28Z</time>
      </trkpt>
      <trkpt lat="45.64162" lon="6.2728">
        <ele>1070.7</ele>
        <time>2014-04-26T14:32:42Z</time>
      </trkpt>
      <trkpt lat="45.64162" lon="6.27307">
        <ele>1063.22</ele>
        <time>2014-04-26T14:33:02Z</time>
      </trkpt>
      <trkpt lat="45.64159" lon="6.27333">
        <ele>1061.85</ele>
        <time>2014-04-26T14:33:19Z</time>
      </trkpt>
      <trkpt lat="45.64154" lon="6.27359">
        <ele>1053.02</ele>
        <time>2014-04-26T14:33:36Z</time>
      </trkpt>
      <trkpt lat="45.64151" lon="6.27384">
        <ele>1050.45</ele>
        <time>2014-04-26T14:33:51Z</time>
      </trkpt>
      <trkpt lat="45.64151" lon="6.2741">
        <ele>1044.22</ele>
        <time>2014-04-26T14:34:05Z</time>
      </trkpt>
      <trkpt lat="45.64153" lon="6.27436">
        <ele>1041.35</ele>
        <time>2014-04-26T14:34:18Z</time>
      </trkpt>
      <trkpt lat="45.64158" lon="6.27462">
        <ele>1038.24</ele>
        <time>2014-04-26T14:34:38Z</time>
      </trkpt>
      <trkpt lat="45.6414" lon="6.27457">
        <ele>1019.84</ele>
        <time>2014-04-26T14:35:15Z</time>
      </trkpt>
      <trkpt lat="45.64124" lon="6.27444">
        <ele>1017.77</ele>
        <time>2014-04-26T14:35:34Z</time>
      </trkpt>
      <trkpt lat="45.64112" lon="6.27425">
        <ele>1019.36</ele>
        <time>2014-04-26T14:35:58Z</time>
      </trkpt>
      <trkpt lat="45.64117" lon="6.2745">
        <ele>1012.54</ele>
        <time>2014-04-26T14:36:43Z</time>
      </trkpt>
      <trkpt lat="45.64122" lon="6.27475">
        <ele>1012.12</ele>
        <time>2014-04-26T14:37:04Z</time>
      </trkpt>
      <trkpt lat="45.64133" lon="6.27498">
        <ele>1006.85</ele>
        <time>2014-04-26T14:37:23Z</time>
      </trkpt>
      <trkpt lat="45.64115" lon="6.27503">
        <ele>988.41</ele>
        <time>2014-04-26T14:37:55Z</time>
      </trkpt>
      <trkpt lat="45.64097" lon="6.27495">
        <ele>983.09</ele>
        <time>2014-04-26T14:38:11Z</time>
      </trkpt>
      <trkpt lat="45.64082" lon="6.27481">
        <ele>977.14</ele>
        <time>2014-04-26T14:38:35Z</time>
      </trkpt>
      <trkpt lat="45.64064" lon="6.2747">
        <ele>974.07</ele>
        <time>2014-04-26T14:38:49Z</time>
      </trkpt>
      <trkpt lat="45.64053" lon="6.27449">
        <ele>971.51</ele>
        <time>2014-04-26T14:39:04Z</time>
      </trkpt>
      <trkpt lat="45.64051" lon="6.27422">
        <ele>970.07</ele>
        <time>2014-04-26T14:39:16Z</time>
      </trkpt>
      <trkpt lat="45.64045" lon="6.27447">
        <ele>962.53</ele>
        <time>2014-04-26T14:39:54Z</time>
      </trkpt>
      <trkpt lat="45.64046" lon="6.27474">
        <ele>961.09</ele>
        <time>2014-04-26T14:40:13Z</time>
      </trkpt>
      <trkpt lat="45.64051" lon="6.275">
        <ele>950.25</ele>
        <time>2014-04-26T14:40:28Z</time>
      </trkpt>
      <trkpt lat="45.64062" lon="6.27522">
        <ele>944.83</ele>
        <time>2014-04-26T14:40:50Z</time>
      </trkpt>
      <trkpt lat="45.64066" lon="6.27548">
        <ele>946.96</ele>
        <time>2014-04-26T14:41:05Z</time>
      </trkpt>
      <trkpt lat="45.6408" lon="6.27567">
        <ele>942.94</ele>
        <time>2014-04-26T14:41:23Z</time>
      </trkpt>
      <trkpt lat="45.64095" lon="6.2758">
        <ele>929.2</ele>
        <time>2014-04-26T14:41:53Z</time>
      </trkpt>
      <trkpt lat="45.64109" lon="6.27597">
        <ele>930.04</ele>
        <time>2014-04-26T14:42:08Z</time>
      </trkpt>
      <trkpt lat="45.64125" lon="6.27608">
        <ele>925.92</ele>
        <time>2014-04-26T14:42:23Z</time>
      </trkpt>
      <trkpt lat="45.64137" lon="6.27629">
        <ele>923.97</ele>
        <time>2014-04-26T14:42:42Z</time>
      </trkpt>
      <trkpt lat="45.64153" lon="6.27644">
        <ele>914.05</ele>
        <time>2014-04-26T14:42:58Z</time>
      </trkpt>
      <trkpt lat="45.64168" lon="6.2766">
        <ele>912.95</ele>
        <time>2014-04-26T14:43:14Z</time>
      </trkpt>
      <trkpt lat="45.64178" lon="6.27682">
        <ele>910.23</ele>
        <time>2014-04-26T14:43:28Z</time>
      </trkpt>
      <trkpt lat="45.64189" lon="6.27703">
        <ele>911.01</ele>
        <time>2014-04-26T14:43:47Z</time>
      </trkpt>
      <trkpt lat="45.64202" lon="6.27722">
        <ele>909.76</ele>
        <time>2014-04-26T14:44:04Z</time>
      </trkpt>
      <trkpt lat="45.64216" lon="6.27738">
        <ele>904.6</ele>
        <time>2014-04-26T14:44:22Z</time>
      </trkpt>
      <trkpt lat="45.64232" lon="6.27752">
        <ele>900.27</ele>
        <time>2014-04-26T14:44:38Z</time>
      </trkpt>
      <trkpt lat="45.64246" lon="6.2777">
        <ele>895.43</ele>
        <time>2014-04-26T14:44:52Z</time>
      </trkpt>
      <trkpt lat="45.64259" lon="6.27789">
        <ele>896.02</ele>
        <time>2014-04-26T14:45:07Z</time>
      </trkpt>
      <trkpt lat="45.64276" lon="6.27801">
        <ele>889.2</ele>
        <time>2014-04-26T14:45:20Z</time>
      </trkpt>
      <trkpt lat="45.64291" lon="6.27818">
        <ele>888.88</ele>
        <time>2014-04-26T14:45:37Z</time>
      </trkpt>
      <trkpt lat="45.64304" lon="6.27838">
        <ele>886.05</ele>
        <time>2014-04-26T14:45:54Z</time>
      </trkpt>
      <trkpt lat="45.64319" lon="6.27853">
        <ele>885.97</ele>
        <time>2014-04-26T14:46:09Z</time>
      </trkpt>
      <trkpt lat="45.64334" lon="6.27871">
        <ele>880.15</ele>
        <time>2014-04-26T14:46:26Z</time>
      </trkpt>
      <trkpt lat="45.64348" lon="6.27888">
        <ele>875.81</ele>
        <time>2014-04-26T14:46:40Z</time>
      </trkpt>
      <trkpt lat="45.64363" lon="6.27904">
        <ele>872.15</ele>
        <time>2014-04-26T14:46:54Z</time>
      </trkpt>
      <trkpt lat="45.64378" lon="6.27921">
        <ele>872</ele>
        <time>2014-04-26T14:47:09Z</time>
      </trkpt>
      <trkpt lat="45.64367" lon="6.27941">
        <ele>840.84</ele>
        <time>2014-04-26T14:47:52Z</time>
      </trkpt>
      <trkpt lat="45.64348" lon="6.27943">
        <ele>841.41</ele>
        <time>2014-04-26T14:48:11Z</time>
      </trkpt>
      <trkpt lat="45.6433" lon="6.27937">
        <ele>838.12</ele>
        <time>2014-04-26T14:48:29Z</time>
      </trkpt>
      <trkpt lat="45.64311" lon="6.27932">
        <ele>839.54</ele>
        <time>2014-04-26T14:48:42Z</time>
      </trkpt>
      <trkpt lat="45.64293" lon="6.27934">
        <ele>833.11</ele>
        <time>2014-04-26T14:48:55Z</time>
      </trkpt>
      <trkpt lat="45.64274" lon="6.27931">
        <ele>831.46</ele>
        <time>2014-04-26T14:49:10Z</time>
      </trkpt>
      <trkpt lat="45.64287" lon="6.27949">
        <ele>822.41</ele>
        <time>2014-04-26T14:49:46Z</time>
      </trkpt>
      <trkpt lat="45.64299" lon="6.27968">
        <ele>819.24</ele>
        <time>2014-04-26T14:50:05Z</time>
      </trkpt>
      <trkpt lat="45.64283" lon="6.27978">
        <ele>798.07</ele>
        <time>2014-04-26T14:50:53Z</time>
      </trkpt>
      <trkpt lat="45.64264" lon="6.27981">
        <ele>799.44</ele>
        <time>2014-04-26T14:51:08Z</time>
      </trkpt>
      <trkpt lat="45.64246" lon="6.27985">
        <ele>797.06</ele>
        <time>2014-04-26T14:51:25Z</time>
      </trkpt>
      <trkpt lat="45.64228" lon="6.27995">
        <ele>791.12</ele>
        <time>2014-04-26T14:51:42Z</time>
      </trkpt>
      <trkpt lat="45.64209" lon="6.27995">
        <ele>790.84</ele>
        <time>2014-04-26T14:51:55Z</time>
      </trkpt>
      <trkpt lat="45.64191" lon="6.27988">
        <ele>789.79</ele>
        <time>2014-04-26T14:52:12Z</time>
      </trkpt>
      <trkpt lat="45.64173" lon="6.27989">
        <ele>782.76</ele>
        <time>2014-04-26T14:52:29Z</time>
      </trkpt>
      <trkpt lat="45.64155" lon="6.27995">
        <ele>781.19</ele>
        <time>2014-04-26T14:52:44Z</time>
      </trkpt>
      <trkpt lat="45.6414" lon="6.2801">
        <ele>775.02</ele>
        <time>2014-04-26T14:53:09Z</time>
      </trkpt>
      <trkpt lat="45.64127" lon="6.28028">
        <ele>769.37</ele>
        <time>2014-04-26T14:53:25Z</time>
      </trkpt>
      <trkpt lat="45.64117" lon="6.2805">
        <ele>758.07</ele>
        <time>2014-04-26T14:54:36Z</time>
      </trkpt>
      <trkpt lat="45.64112" lon="6.28076">
        <ele>750.93</ele>
        <time>2014-04-26T14:54:50Z</time>
      </trkpt>
      <trkpt lat="45.64104" lon="6.28101">
        <ele>749.52</ele>
        <time>2014-04-26T14:55:02Z</time>
      </trkpt>
      <trkpt lat="45.64097" lon="6.28127">
        <ele>739.11</ele>
        <time>2014-04-26T14:55:15Z</time>
      </trkpt>
      <trkpt lat="45.64088" lon="6.28152">
        <ele>724.67</ele>
        <time>2014-04-26T14:55:34Z</time>
      </trkpt>
      <trkpt lat="45.64079" lon="6.28176">
        <ele>724.04</ele>
        <time>2014-04-26T14:55:47Z</time>
      </trkpt>
      <trkpt lat="45.64063" lon="6.28189">
        <ele>718.2</ele>
        <time>2014-04-26T14:55:59Z</time>
      </trkpt>
      <trkpt lat="45.64047" lon="6.28203">
        <ele>717.34</ele>
        <time>2014-04-26T14:57:50Z</time>
      </trkpt>
      <trkpt lat="45.64065" lon="6.28209">
        <ele>713.84</ele>
        <time>2014-04-26T14:58:17Z</time>
      </trkpt>
      <trkpt lat="45.64083" lon="6.28219">
        <ele>714.7</ele>
        <time>2014-04-26T14:58:30Z</time>
      </trkpt>
      <trkpt lat="45.64101" lon="6.28223">
        <ele>712.12</ele>
        <time>2014-04-26T14:58:45Z</time>
      </trkpt>
      <trkpt lat="45.64118" lon="6.28236">
        <ele>710.32</ele>
        <time>2014-04-26T14:59:03Z</time>
      </trkpt>
      <trkpt lat="45.64134" lon="6.28247">
        <ele>713.71</ele>
        <time>2014-04-26T14:59:17Z</time>
      </trkpt>
      <trkpt lat="45.64153" lon="6.2825">
        <ele>716.95</ele>
        <time>2014-04-26T14:59:30Z</time>
      </trkpt>
      <trkpt lat="45.64171" lon="6.28254">
        <ele>718.5</ele>
        <time>2014-04-26T14:59:44Z</time>
      </trkpt>
    </trkseg>
  </trk>
</gpx>